<?xml version="1.0" encoding="UTF-8" standalone="no" ?>
<gpx xmlns="http://www.topografix.com/GPX/1/1" xmlns:xsi="http://www.w3.org/2001/XMLSchema-instance" xsi:schemaLocation="http://www.topografix.com/GPX/1/1 http://www.topografix.com/GPX/1/1/gpx.xsd" version="1.1" creator="VisuGPX - https://www.visugpx.com">
  <metadata>
    <name>La Chapelle-de-Guinchay Cyclisme</name>
    <desc><![CDATA[Col de la Croix Montmain au départ de Le Perréon]]></desc>
  </metadata>
  <trk>
    <name><![CDATA[La Chapelle-de-Guinchay Cyclisme]]></name>
    <trkseg>
      <trkpt lat="46.05939" lon="4.60719">
        <ele>278.20001220703</ele>
        <time>2019-07-17T08:20:14.000Z</time>
      </trkpt>
      <trkpt lat="46.05955" lon="4.60701">
        <ele>277.39999389648</ele>
        <time>2019-07-17T08:20:18.000Z</time>
      </trkpt>
      <trkpt lat="46.05982" lon="4.60675">
        <ele>278.20001220703</ele>
        <time>2019-07-17T08:20:25.000Z</time>
      </trkpt>
      <trkpt lat="46.05997" lon="4.60663">
        <ele>279</ele>
        <time>2019-07-17T08:20:29.000Z</time>
      </trkpt>
      <trkpt lat="46.06" lon="4.60659">
        <ele>279.20001220703</ele>
        <time>2019-07-17T08:20:30.000Z</time>
      </trkpt>
      <trkpt lat="46.06005" lon="4.60656">
        <ele>279.39999389648</ele>
        <time>2019-07-17T08:20:31.000Z</time>
      </trkpt>
      <trkpt lat="46.06009" lon="4.60652">
        <ele>279.79998779297</ele>
        <time>2019-07-17T08:20:32.000Z</time>
      </trkpt>
      <trkpt lat="46.06025" lon="4.60638">
        <ele>279.39999389648</ele>
        <time>2019-07-17T08:20:36.000Z</time>
      </trkpt>
      <trkpt lat="46.06029" lon="4.60635">
        <ele>279.20001220703</ele>
        <time>2019-07-17T08:20:37.000Z</time>
      </trkpt>
      <trkpt lat="46.06049" lon="4.60617">
        <ele>278.79998779297</ele>
        <time>2019-07-17T08:20:42.000Z</time>
      </trkpt>
      <trkpt lat="46.06053" lon="4.60614">
        <ele>279</ele>
        <time>2019-07-17T08:20:43.000Z</time>
      </trkpt>
      <trkpt lat="46.06075" lon="4.6059">
        <ele>280.39999389648</ele>
        <time>2019-07-17T08:20:49.000Z</time>
      </trkpt>
      <trkpt lat="46.06079" lon="4.60586">
        <ele>280.79998779297</ele>
        <time>2019-07-17T08:20:50.000Z</time>
      </trkpt>
      <trkpt lat="46.06085" lon="4.60577">
        <ele>281.39999389648</ele>
        <time>2019-07-17T08:20:52.000Z</time>
      </trkpt>
      <trkpt lat="46.06089" lon="4.60568">
        <ele>281.79998779297</ele>
        <time>2019-07-17T08:20:54.000Z</time>
      </trkpt>
      <trkpt lat="46.06104" lon="4.6054">
        <ele>282.39999389648</ele>
        <time>2019-07-17T08:21:00.000Z</time>
      </trkpt>
      <trkpt lat="46.06108" lon="4.60529">
        <ele>282.60000610352</ele>
        <time>2019-07-17T08:21:02.000Z</time>
      </trkpt>
      <trkpt lat="46.0612" lon="4.60502">
        <ele>283.20001220703</ele>
        <time>2019-07-17T08:21:07.000Z</time>
      </trkpt>
      <trkpt lat="46.06125" lon="4.60491">
        <ele>283.39999389648</ele>
        <time>2019-07-17T08:21:09.000Z</time>
      </trkpt>
      <trkpt lat="46.06139" lon="4.60461">
        <ele>283.79998779297</ele>
        <time>2019-07-17T08:21:15.000Z</time>
      </trkpt>
      <trkpt lat="46.06148" lon="4.60441">
        <ele>284.60000610352</ele>
        <time>2019-07-17T08:21:19.000Z</time>
      </trkpt>
      <trkpt lat="46.06158" lon="4.60425">
        <ele>285.79998779297</ele>
        <time>2019-07-17T08:21:23.000Z</time>
      </trkpt>
      <trkpt lat="46.06161" lon="4.60421">
        <ele>286.20001220703</ele>
        <time>2019-07-17T08:21:24.000Z</time>
      </trkpt>
      <trkpt lat="46.06173" lon="4.60404">
        <ele>287.60000610352</ele>
        <time>2019-07-17T08:21:28.000Z</time>
      </trkpt>
      <trkpt lat="46.06176" lon="4.604">
        <ele>287.79998779297</ele>
        <time>2019-07-17T08:21:29.000Z</time>
      </trkpt>
      <trkpt lat="46.06182" lon="4.60392">
        <ele>287.60000610352</ele>
        <time>2019-07-17T08:21:31.000Z</time>
      </trkpt>
      <trkpt lat="46.06192" lon="4.60378">
        <ele>287</ele>
        <time>2019-07-17T08:21:34.000Z</time>
      </trkpt>
      <trkpt lat="46.06195" lon="4.60374">
        <ele>286.79998779297</ele>
        <time>2019-07-17T08:21:35.000Z</time>
      </trkpt>
      <trkpt lat="46.06201" lon="4.60365">
        <ele>286.79998779297</ele>
        <time>2019-07-17T08:21:37.000Z</time>
      </trkpt>
      <trkpt lat="46.06215" lon="4.60344">
        <ele>287.60000610352</ele>
        <time>2019-07-17T08:21:42.000Z</time>
      </trkpt>
      <trkpt lat="46.06221" lon="4.60335">
        <ele>288</ele>
        <time>2019-07-17T08:21:44.000Z</time>
      </trkpt>
      <trkpt lat="46.06231" lon="4.60317">
        <ele>289</ele>
        <time>2019-07-17T08:21:48.000Z</time>
      </trkpt>
      <trkpt lat="46.06237" lon="4.60309">
        <ele>289.60000610352</ele>
        <time>2019-07-17T08:21:50.000Z</time>
      </trkpt>
      <trkpt lat="46.06248" lon="4.60291">
        <ele>290.60000610352</ele>
        <time>2019-07-17T08:21:54.000Z</time>
      </trkpt>
      <trkpt lat="46.06257" lon="4.60278">
        <ele>291.60000610352</ele>
        <time>2019-07-17T08:21:57.000Z</time>
      </trkpt>
      <trkpt lat="46.06272" lon="4.60252">
        <ele>293.79998779297</ele>
        <time>2019-07-17T08:22:03.000Z</time>
      </trkpt>
      <trkpt lat="46.06274" lon="4.60247">
        <ele>294.20001220703</ele>
        <time>2019-07-17T08:22:04.000Z</time>
      </trkpt>
      <trkpt lat="46.06281" lon="4.60214">
        <ele>296.39999389648</ele>
        <time>2019-07-17T08:22:10.000Z</time>
      </trkpt>
      <trkpt lat="46.06288" lon="4.60169">
        <ele>298</ele>
        <time>2019-07-17T08:22:18.000Z</time>
      </trkpt>
      <trkpt lat="46.06293" lon="4.60141">
        <ele>299</ele>
        <time>2019-07-17T08:22:23.000Z</time>
      </trkpt>
      <trkpt lat="46.06295" lon="4.60123">
        <ele>299.60000610352</ele>
        <time>2019-07-17T08:22:26.000Z</time>
      </trkpt>
      <trkpt lat="46.06298" lon="4.60097">
        <ele>299.39999389648</ele>
        <time>2019-07-17T08:22:30.000Z</time>
      </trkpt>
      <trkpt lat="46.06298" lon="4.60091">
        <ele>299.39999389648</ele>
        <time>2019-07-17T08:22:31.000Z</time>
      </trkpt>
      <trkpt lat="46.06301" lon="4.60054">
        <ele>299.20001220703</ele>
        <time>2019-07-17T08:22:37.000Z</time>
      </trkpt>
      <trkpt lat="46.06301" lon="4.60047">
        <ele>299.20001220703</ele>
        <time>2019-07-17T08:22:38.000Z</time>
      </trkpt>
      <trkpt lat="46.06299" lon="4.60037">
        <ele>299</ele>
        <time>2019-07-17T08:22:40.000Z</time>
      </trkpt>
      <trkpt lat="46.06299" lon="4.60026">
        <ele>299</ele>
        <time>2019-07-17T08:22:42.000Z</time>
      </trkpt>
      <trkpt lat="46.06303" lon="4.59987">
        <ele>299.39999389648</ele>
        <time>2019-07-17T08:22:48.000Z</time>
      </trkpt>
      <trkpt lat="46.06304" lon="4.5998">
        <ele>299.39999389648</ele>
        <time>2019-07-17T08:22:49.000Z</time>
      </trkpt>
      <trkpt lat="46.06304" lon="4.59966">
        <ele>299.39999389648</ele>
        <time>2019-07-17T08:22:51.000Z</time>
      </trkpt>
      <trkpt lat="46.06308" lon="4.59929">
        <ele>299.60000610352</ele>
        <time>2019-07-17T08:22:56.000Z</time>
      </trkpt>
      <trkpt lat="46.06317" lon="4.59866">
        <ele>300</ele>
        <time>2019-07-17T08:23:04.000Z</time>
      </trkpt>
      <trkpt lat="46.06319" lon="4.59851">
        <ele>300.20001220703</ele>
        <time>2019-07-17T08:23:06.000Z</time>
      </trkpt>
      <trkpt lat="46.06322" lon="4.59826">
        <ele>300.60000610352</ele>
        <time>2019-07-17T08:23:09.000Z</time>
      </trkpt>
      <trkpt lat="46.06323" lon="4.59818">
        <ele>300.60000610352</ele>
        <time>2019-07-17T08:23:10.000Z</time>
      </trkpt>
      <trkpt lat="46.06321" lon="4.59794">
        <ele>300.20001220703</ele>
        <time>2019-07-17T08:23:13.000Z</time>
      </trkpt>
      <trkpt lat="46.06312" lon="4.59773">
        <ele>300</ele>
        <time>2019-07-17T08:23:16.000Z</time>
      </trkpt>
      <trkpt lat="46.06309" lon="4.59766">
        <ele>300.20001220703</ele>
        <time>2019-07-17T08:23:17.000Z</time>
      </trkpt>
      <trkpt lat="46.06283" lon="4.59719">
        <ele>301.39999389648</ele>
        <time>2019-07-17T08:23:24.000Z</time>
      </trkpt>
      <trkpt lat="46.06276" lon="4.59708">
        <ele>301.60000610352</ele>
        <time>2019-07-17T08:23:26.000Z</time>
      </trkpt>
      <trkpt lat="46.06266" lon="4.59689">
        <ele>301.79998779297</ele>
        <time>2019-07-17T08:23:29.000Z</time>
      </trkpt>
      <trkpt lat="46.06261" lon="4.59677">
        <ele>301.60000610352</ele>
        <time>2019-07-17T08:23:31.000Z</time>
      </trkpt>
      <trkpt lat="46.06256" lon="4.59665">
        <ele>301.60000610352</ele>
        <time>2019-07-17T08:23:33.000Z</time>
      </trkpt>
      <trkpt lat="46.06251" lon="4.59653">
        <ele>301.60000610352</ele>
        <time>2019-07-17T08:23:35.000Z</time>
      </trkpt>
      <trkpt lat="46.06247" lon="4.59641">
        <ele>301.60000610352</ele>
        <time>2019-07-17T08:23:37.000Z</time>
      </trkpt>
      <trkpt lat="46.06245" lon="4.59635">
        <ele>301.79998779297</ele>
        <time>2019-07-17T08:23:38.000Z</time>
      </trkpt>
      <trkpt lat="46.06239" lon="4.59612">
        <ele>302.20001220703</ele>
        <time>2019-07-17T08:23:42.000Z</time>
      </trkpt>
      <trkpt lat="46.06238" lon="4.596">
        <ele>301.79998779297</ele>
        <time>2019-07-17T08:23:44.000Z</time>
      </trkpt>
      <trkpt lat="46.06238" lon="4.59588">
        <ele>301.39999389648</ele>
        <time>2019-07-17T08:23:46.000Z</time>
      </trkpt>
      <trkpt lat="46.06241" lon="4.59571">
        <ele>301.20001220703</ele>
        <time>2019-07-17T08:23:49.000Z</time>
      </trkpt>
      <trkpt lat="46.06248" lon="4.59545">
        <ele>301.79998779297</ele>
        <time>2019-07-17T08:23:54.000Z</time>
      </trkpt>
      <trkpt lat="46.0625" lon="4.59538">
        <ele>302.20001220703</ele>
        <time>2019-07-17T08:23:55.000Z</time>
      </trkpt>
      <trkpt lat="46.06261" lon="4.59506">
        <ele>303.20001220703</ele>
        <time>2019-07-17T08:23:59.000Z</time>
      </trkpt>
      <trkpt lat="46.06273" lon="4.59457">
        <ele>304.79998779297</ele>
        <time>2019-07-17T08:24:04.000Z</time>
      </trkpt>
      <trkpt lat="46.06275" lon="4.59447">
        <ele>305</ele>
        <time>2019-07-17T08:24:05.000Z</time>
      </trkpt>
      <trkpt lat="46.06278" lon="4.59427">
        <ele>305.39999389648</ele>
        <time>2019-07-17T08:24:07.000Z</time>
      </trkpt>
      <trkpt lat="46.0628" lon="4.59397">
        <ele>306.79998779297</ele>
        <time>2019-07-17T08:24:10.000Z</time>
      </trkpt>
      <trkpt lat="46.06281" lon="4.59315">
        <ele>311</ele>
        <time>2019-07-17T08:24:19.000Z</time>
      </trkpt>
      <trkpt lat="46.06281" lon="4.59307">
        <ele>311.60000610352</ele>
        <time>2019-07-17T08:24:20.000Z</time>
      </trkpt>
      <trkpt lat="46.06278" lon="4.59261">
        <ele>312.79998779297</ele>
        <time>2019-07-17T08:24:26.000Z</time>
      </trkpt>
      <trkpt lat="46.06278" lon="4.59254">
        <ele>312.79998779297</ele>
        <time>2019-07-17T08:24:27.000Z</time>
      </trkpt>
      <trkpt lat="46.06268" lon="4.59179">
        <ele>312.79998779297</ele>
        <time>2019-07-17T08:24:37.000Z</time>
      </trkpt>
      <trkpt lat="46.06259" lon="4.59118">
        <ele>310.39999389648</ele>
        <time>2019-07-17T08:24:44.000Z</time>
      </trkpt>
      <trkpt lat="46.06252" lon="4.59081">
        <ele>310.79998779297</ele>
        <time>2019-07-17T08:24:48.000Z</time>
      </trkpt>
      <trkpt lat="46.06247" lon="4.59063">
        <ele>310.60000610352</ele>
        <time>2019-07-17T08:24:50.000Z</time>
      </trkpt>
      <trkpt lat="46.06235" lon="4.59004">
        <ele>310.79998779297</ele>
        <time>2019-07-17T08:24:57.000Z</time>
      </trkpt>
      <trkpt lat="46.0623" lon="4.58949">
        <ele>311.20001220703</ele>
        <time>2019-07-17T08:25:04.000Z</time>
      </trkpt>
      <trkpt lat="46.06229" lon="4.58924">
        <ele>310.39999389648</ele>
        <time>2019-07-17T08:25:07.000Z</time>
      </trkpt>
      <trkpt lat="46.06229" lon="4.58886">
        <ele>310.20001220703</ele>
        <time>2019-07-17T08:25:11.000Z</time>
      </trkpt>
      <trkpt lat="46.06231" lon="4.5883">
        <ele>309.60000610352</ele>
        <time>2019-07-17T08:25:17.000Z</time>
      </trkpt>
      <trkpt lat="46.06235" lon="4.58749">
        <ele>310.20001220703</ele>
        <time>2019-07-17T08:25:26.000Z</time>
      </trkpt>
      <trkpt lat="46.06237" lon="4.58695">
        <ele>311.60000610352</ele>
        <time>2019-07-17T08:25:33.000Z</time>
      </trkpt>
      <trkpt lat="46.06238" lon="4.58688">
        <ele>312.20001220703</ele>
        <time>2019-07-17T08:25:34.000Z</time>
      </trkpt>
      <trkpt lat="46.06241" lon="4.58669">
        <ele>313.60000610352</ele>
        <time>2019-07-17T08:25:37.000Z</time>
      </trkpt>
      <trkpt lat="46.06243" lon="4.58653">
        <ele>315</ele>
        <time>2019-07-17T08:25:40.000Z</time>
      </trkpt>
      <trkpt lat="46.06248" lon="4.58635">
        <ele>316.39999389648</ele>
        <time>2019-07-17T08:25:44.000Z</time>
      </trkpt>
      <trkpt lat="46.06251" lon="4.58621">
        <ele>316</ele>
        <time>2019-07-17T08:25:47.000Z</time>
      </trkpt>
      <trkpt lat="46.06251" lon="4.58616">
        <ele>316</ele>
        <time>2019-07-17T08:25:48.000Z</time>
      </trkpt>
      <trkpt lat="46.06253" lon="4.58602">
        <ele>316.60000610352</ele>
        <time>2019-07-17T08:25:51.000Z</time>
      </trkpt>
      <trkpt lat="46.06257" lon="4.58585">
        <ele>317.39999389648</ele>
        <time>2019-07-17T08:25:55.000Z</time>
      </trkpt>
      <trkpt lat="46.06258" lon="4.58576">
        <ele>317.79998779297</ele>
        <time>2019-07-17T08:25:57.000Z</time>
      </trkpt>
      <trkpt lat="46.06259" lon="4.58567">
        <ele>318.20001220703</ele>
        <time>2019-07-17T08:25:59.000Z</time>
      </trkpt>
      <trkpt lat="46.0626" lon="4.58553">
        <ele>317.79998779297</ele>
        <time>2019-07-17T08:26:02.000Z</time>
      </trkpt>
      <trkpt lat="46.06262" lon="4.58526">
        <ele>318</ele>
        <time>2019-07-17T08:26:08.000Z</time>
      </trkpt>
      <trkpt lat="46.06263" lon="4.58512">
        <ele>318.79998779297</ele>
        <time>2019-07-17T08:26:11.000Z</time>
      </trkpt>
      <trkpt lat="46.06263" lon="4.58507">
        <ele>319</ele>
        <time>2019-07-17T08:26:12.000Z</time>
      </trkpt>
      <trkpt lat="46.06263" lon="4.58498">
        <ele>319.39999389648</ele>
        <time>2019-07-17T08:26:14.000Z</time>
      </trkpt>
      <trkpt lat="46.06264" lon="4.5848">
        <ele>320</ele>
        <time>2019-07-17T08:26:18.000Z</time>
      </trkpt>
      <trkpt lat="46.06266" lon="4.58443">
        <ele>320.60000610352</ele>
        <time>2019-07-17T08:26:26.000Z</time>
      </trkpt>
      <trkpt lat="46.06267" lon="4.58411">
        <ele>322.79998779297</ele>
        <time>2019-07-17T08:26:33.000Z</time>
      </trkpt>
      <trkpt lat="46.06268" lon="4.58398">
        <ele>323.60000610352</ele>
        <time>2019-07-17T08:26:36.000Z</time>
      </trkpt>
      <trkpt lat="46.06268" lon="4.58394">
        <ele>323.79998779297</ele>
        <time>2019-07-17T08:26:37.000Z</time>
      </trkpt>
      <trkpt lat="46.06272" lon="4.58374">
        <ele>324.79998779297</ele>
        <time>2019-07-17T08:26:42.000Z</time>
      </trkpt>
      <trkpt lat="46.06273" lon="4.5837">
        <ele>325</ele>
        <time>2019-07-17T08:26:43.000Z</time>
      </trkpt>
      <trkpt lat="46.06279" lon="4.58352">
        <ele>325.60000610352</ele>
        <time>2019-07-17T08:26:48.000Z</time>
      </trkpt>
      <trkpt lat="46.06286" lon="4.58335">
        <ele>326.79998779297</ele>
        <time>2019-07-17T08:26:53.000Z</time>
      </trkpt>
      <trkpt lat="46.0629" lon="4.58325">
        <ele>328</ele>
        <time>2019-07-17T08:26:56.000Z</time>
      </trkpt>
      <trkpt lat="46.06295" lon="4.58307">
        <ele>330</ele>
        <time>2019-07-17T08:27:01.000Z</time>
      </trkpt>
      <trkpt lat="46.06297" lon="4.583">
        <ele>330.79998779297</ele>
        <time>2019-07-17T08:27:03.000Z</time>
      </trkpt>
      <trkpt lat="46.06299" lon="4.58293">
        <ele>331.60000610352</ele>
        <time>2019-07-17T08:27:05.000Z</time>
      </trkpt>
      <trkpt lat="46.06301" lon="4.58282">
        <ele>332.39999389648</ele>
        <time>2019-07-17T08:27:08.000Z</time>
      </trkpt>
      <trkpt lat="46.06302" lon="4.58275">
        <ele>332.79998779297</ele>
        <time>2019-07-17T08:27:10.000Z</time>
      </trkpt>
      <trkpt lat="46.06304" lon="4.58265">
        <ele>333.79998779297</ele>
        <time>2019-07-17T08:27:13.000Z</time>
      </trkpt>
      <trkpt lat="46.06306" lon="4.58254">
        <ele>335</ele>
        <time>2019-07-17T08:27:16.000Z</time>
      </trkpt>
      <trkpt lat="46.06307" lon="4.58251">
        <ele>335.39999389648</ele>
        <time>2019-07-17T08:27:17.000Z</time>
      </trkpt>
      <trkpt lat="46.06309" lon="4.58237">
        <ele>337</ele>
        <time>2019-07-17T08:27:21.000Z</time>
      </trkpt>
      <trkpt lat="46.06312" lon="4.5823">
        <ele>337.79998779297</ele>
        <time>2019-07-17T08:27:23.000Z</time>
      </trkpt>
      <trkpt lat="46.06313" lon="4.58227">
        <ele>338.20001220703</ele>
        <time>2019-07-17T08:27:24.000Z</time>
      </trkpt>
      <trkpt lat="46.06315" lon="4.5822">
        <ele>338.79998779297</ele>
        <time>2019-07-17T08:27:26.000Z</time>
      </trkpt>
      <trkpt lat="46.06321" lon="4.58208">
        <ele>339.79998779297</ele>
        <time>2019-07-17T08:27:30.000Z</time>
      </trkpt>
      <trkpt lat="46.06323" lon="4.58205">
        <ele>339.39999389648</ele>
        <time>2019-07-17T08:27:31.000Z</time>
      </trkpt>
      <trkpt lat="46.06334" lon="4.58181">
        <ele>339.20001220703</ele>
        <time>2019-07-17T08:27:39.000Z</time>
      </trkpt>
      <trkpt lat="46.06337" lon="4.58175">
        <ele>339.39999389648</ele>
        <time>2019-07-17T08:27:41.000Z</time>
      </trkpt>
      <trkpt lat="46.06343" lon="4.58161">
        <ele>339.39999389648</ele>
        <time>2019-07-17T08:27:46.000Z</time>
      </trkpt>
      <trkpt lat="46.06345" lon="4.58158">
        <ele>339.39999389648</ele>
        <time>2019-07-17T08:27:47.000Z</time>
      </trkpt>
      <trkpt lat="46.06349" lon="4.58146">
        <ele>340.39999389648</ele>
        <time>2019-07-17T08:27:51.000Z</time>
      </trkpt>
      <trkpt lat="46.06352" lon="4.5814">
        <ele>341.20001220703</ele>
        <time>2019-07-17T08:27:53.000Z</time>
      </trkpt>
      <trkpt lat="46.06353" lon="4.58137">
        <ele>341.39999389648</ele>
        <time>2019-07-17T08:27:54.000Z</time>
      </trkpt>
      <trkpt lat="46.06359" lon="4.58128">
        <ele>342.60000610352</ele>
        <time>2019-07-17T08:27:58.000Z</time>
      </trkpt>
      <trkpt lat="46.06363" lon="4.5812">
        <ele>343.39999389648</ele>
        <time>2019-07-17T08:28:01.000Z</time>
      </trkpt>
      <trkpt lat="46.06368" lon="4.58113">
        <ele>343.79998779297</ele>
        <time>2019-07-17T08:28:04.000Z</time>
      </trkpt>
      <trkpt lat="46.06369" lon="4.5811">
        <ele>343.79998779297</ele>
        <time>2019-07-17T08:28:05.000Z</time>
      </trkpt>
      <trkpt lat="46.06382" lon="4.581">
        <ele>344.79998779297</ele>
        <time>2019-07-17T08:28:11.000Z</time>
      </trkpt>
      <trkpt lat="46.06385" lon="4.58098">
        <ele>345.20001220703</ele>
        <time>2019-07-17T08:28:12.000Z</time>
      </trkpt>
      <trkpt lat="46.06395" lon="4.58084">
        <ele>347.20001220703</ele>
        <time>2019-07-17T08:28:17.000Z</time>
      </trkpt>
      <trkpt lat="46.064" lon="4.58079">
        <ele>347.60000610352</ele>
        <time>2019-07-17T08:28:19.000Z</time>
      </trkpt>
      <trkpt lat="46.06406" lon="4.5807">
        <ele>348.20001220703</ele>
        <time>2019-07-17T08:28:22.000Z</time>
      </trkpt>
      <trkpt lat="46.06412" lon="4.58061">
        <ele>349</ele>
        <time>2019-07-17T08:28:25.000Z</time>
      </trkpt>
      <trkpt lat="46.06419" lon="4.58048">
        <ele>348.60000610352</ele>
        <time>2019-07-17T08:28:29.000Z</time>
      </trkpt>
      <trkpt lat="46.06421" lon="4.58045">
        <ele>348.20001220703</ele>
        <time>2019-07-17T08:28:30.000Z</time>
      </trkpt>
      <trkpt lat="46.06428" lon="4.58032">
        <ele>347</ele>
        <time>2019-07-17T08:28:34.000Z</time>
      </trkpt>
      <trkpt lat="46.06439" lon="4.58012">
        <ele>346.39999389648</ele>
        <time>2019-07-17T08:28:40.000Z</time>
      </trkpt>
      <trkpt lat="46.06442" lon="4.58009">
        <ele>346.20001220703</ele>
        <time>2019-07-17T08:28:41.000Z</time>
      </trkpt>
      <trkpt lat="46.06449" lon="4.57996">
        <ele>347</ele>
        <time>2019-07-17T08:28:45.000Z</time>
      </trkpt>
      <trkpt lat="46.06454" lon="4.57986">
        <ele>348.39999389648</ele>
        <time>2019-07-17T08:28:48.000Z</time>
      </trkpt>
      <trkpt lat="46.06456" lon="4.57983">
        <ele>348.79998779297</ele>
        <time>2019-07-17T08:28:49.000Z</time>
      </trkpt>
      <trkpt lat="46.06464" lon="4.57967">
        <ele>351</ele>
        <time>2019-07-17T08:28:54.000Z</time>
      </trkpt>
      <trkpt lat="46.06469" lon="4.57957">
        <ele>352.39999389648</ele>
        <time>2019-07-17T08:28:57.000Z</time>
      </trkpt>
      <trkpt lat="46.06475" lon="4.57944">
        <ele>354</ele>
        <time>2019-07-17T08:29:01.000Z</time>
      </trkpt>
      <trkpt lat="46.06483" lon="4.57928">
        <ele>355.60000610352</ele>
        <time>2019-07-17T08:29:06.000Z</time>
      </trkpt>
      <trkpt lat="46.06488" lon="4.57914">
        <ele>357</ele>
        <time>2019-07-17T08:29:10.000Z</time>
      </trkpt>
      <trkpt lat="46.06493" lon="4.57902">
        <ele>358.20001220703</ele>
        <time>2019-07-17T08:29:13.000Z</time>
      </trkpt>
      <trkpt lat="46.06499" lon="4.57887">
        <ele>359.20001220703</ele>
        <time>2019-07-17T08:29:17.000Z</time>
      </trkpt>
      <trkpt lat="46.06504" lon="4.57876">
        <ele>358.79998779297</ele>
        <time>2019-07-17T08:29:20.000Z</time>
      </trkpt>
      <trkpt lat="46.06507" lon="4.57869">
        <ele>358.79998779297</ele>
        <time>2019-07-17T08:29:22.000Z</time>
      </trkpt>
      <trkpt lat="46.06515" lon="4.57852">
        <ele>358.39999389648</ele>
        <time>2019-07-17T08:29:27.000Z</time>
      </trkpt>
      <trkpt lat="46.06516" lon="4.57848">
        <ele>358.20001220703</ele>
        <time>2019-07-17T08:29:28.000Z</time>
      </trkpt>
      <trkpt lat="46.0652" lon="4.57828">
        <ele>358.60000610352</ele>
        <time>2019-07-17T08:29:33.000Z</time>
      </trkpt>
      <trkpt lat="46.06522" lon="4.5782">
        <ele>359</ele>
        <time>2019-07-17T08:29:35.000Z</time>
      </trkpt>
      <trkpt lat="46.06524" lon="4.57803">
        <ele>360.20001220703</ele>
        <time>2019-07-17T08:29:39.000Z</time>
      </trkpt>
      <trkpt lat="46.06523" lon="4.57785">
        <ele>361.79998779297</ele>
        <time>2019-07-17T08:29:43.000Z</time>
      </trkpt>
      <trkpt lat="46.06521" lon="4.57768">
        <ele>363.39999389648</ele>
        <time>2019-07-17T08:29:47.000Z</time>
      </trkpt>
      <trkpt lat="46.0652" lon="4.57751">
        <ele>365.20001220703</ele>
        <time>2019-07-17T08:29:51.000Z</time>
      </trkpt>
      <trkpt lat="46.06519" lon="4.57746">
        <ele>365.60000610352</ele>
        <time>2019-07-17T08:29:52.000Z</time>
      </trkpt>
      <trkpt lat="46.06518" lon="4.57734">
        <ele>367</ele>
        <time>2019-07-17T08:29:55.000Z</time>
      </trkpt>
      <trkpt lat="46.06516" lon="4.57714">
        <ele>369.39999389648</ele>
        <time>2019-07-17T08:30:00.000Z</time>
      </trkpt>
      <trkpt lat="46.06514" lon="4.57701">
        <ele>371</ele>
        <time>2019-07-17T08:30:03.000Z</time>
      </trkpt>
      <trkpt lat="46.06512" lon="4.57689">
        <ele>372.20001220703</ele>
        <time>2019-07-17T08:30:06.000Z</time>
      </trkpt>
      <trkpt lat="46.06511" lon="4.57678">
        <ele>373.60000610352</ele>
        <time>2019-07-17T08:30:09.000Z</time>
      </trkpt>
      <trkpt lat="46.06509" lon="4.5767">
        <ele>374.39999389648</ele>
        <time>2019-07-17T08:30:11.000Z</time>
      </trkpt>
      <trkpt lat="46.06508" lon="4.57658">
        <ele>375.79998779297</ele>
        <time>2019-07-17T08:30:14.000Z</time>
      </trkpt>
      <trkpt lat="46.06505" lon="4.57642">
        <ele>377.60000610352</ele>
        <time>2019-07-17T08:30:18.000Z</time>
      </trkpt>
      <trkpt lat="46.06504" lon="4.57631">
        <ele>378.79998779297</ele>
        <time>2019-07-17T08:30:21.000Z</time>
      </trkpt>
      <trkpt lat="46.06501" lon="4.57611">
        <ele>380.79998779297</ele>
        <time>2019-07-17T08:30:26.000Z</time>
      </trkpt>
      <trkpt lat="46.06498" lon="4.57596">
        <ele>382.20001220703</ele>
        <time>2019-07-17T08:30:30.000Z</time>
      </trkpt>
      <trkpt lat="46.06496" lon="4.57583">
        <ele>383.39999389648</ele>
        <time>2019-07-17T08:30:34.000Z</time>
      </trkpt>
      <trkpt lat="46.06492" lon="4.57573">
        <ele>384.39999389648</ele>
        <time>2019-07-17T08:30:37.000Z</time>
      </trkpt>
      <trkpt lat="46.06489" lon="4.57564">
        <ele>385.60000610352</ele>
        <time>2019-07-17T08:30:40.000Z</time>
      </trkpt>
      <trkpt lat="46.0648" lon="4.57544">
        <ele>388</ele>
        <time>2019-07-17T08:30:47.000Z</time>
      </trkpt>
      <trkpt lat="46.06478" lon="4.57541">
        <ele>388.39999389648</ele>
        <time>2019-07-17T08:30:48.000Z</time>
      </trkpt>
      <trkpt lat="46.06473" lon="4.57533">
        <ele>389.20001220703</ele>
        <time>2019-07-17T08:30:51.000Z</time>
      </trkpt>
      <trkpt lat="46.06467" lon="4.57524">
        <ele>390</ele>
        <time>2019-07-17T08:30:55.000Z</time>
      </trkpt>
      <trkpt lat="46.06458" lon="4.57512">
        <ele>391.20001220703</ele>
        <time>2019-07-17T08:31:00.000Z</time>
      </trkpt>
      <trkpt lat="46.06455" lon="4.57507">
        <ele>391.79998779297</ele>
        <time>2019-07-17T08:31:02.000Z</time>
      </trkpt>
      <trkpt lat="46.06447" lon="4.575">
        <ele>392.39999389648</ele>
        <time>2019-07-17T08:31:06.000Z</time>
      </trkpt>
      <trkpt lat="46.06442" lon="4.57495">
        <ele>392.79998779297</ele>
        <time>2019-07-17T08:31:09.000Z</time>
      </trkpt>
      <trkpt lat="46.06438" lon="4.57491">
        <ele>393.20001220703</ele>
        <time>2019-07-17T08:31:11.000Z</time>
      </trkpt>
      <trkpt lat="46.06423" lon="4.57478">
        <ele>394.39999389648</ele>
        <time>2019-07-17T08:31:18.000Z</time>
      </trkpt>
      <trkpt lat="46.06417" lon="4.57471">
        <ele>395.20001220703</ele>
        <time>2019-07-17T08:31:21.000Z</time>
      </trkpt>
      <trkpt lat="46.06408" lon="4.5746">
        <ele>396.20001220703</ele>
        <time>2019-07-17T08:31:26.000Z</time>
      </trkpt>
      <trkpt lat="46.06396" lon="4.57444">
        <ele>398</ele>
        <time>2019-07-17T08:31:32.000Z</time>
      </trkpt>
      <trkpt lat="46.06392" lon="4.57438">
        <ele>398.79998779297</ele>
        <time>2019-07-17T08:31:34.000Z</time>
      </trkpt>
      <trkpt lat="46.06389" lon="4.57433">
        <ele>399</ele>
        <time>2019-07-17T08:31:36.000Z</time>
      </trkpt>
      <trkpt lat="46.06383" lon="4.57422">
        <ele>399.79998779297</ele>
        <time>2019-07-17T08:31:40.000Z</time>
      </trkpt>
      <trkpt lat="46.06379" lon="4.57417">
        <ele>400</ele>
        <time>2019-07-17T08:31:42.000Z</time>
      </trkpt>
      <trkpt lat="46.06374" lon="4.57408">
        <ele>400.60000610352</ele>
        <time>2019-07-17T08:31:45.000Z</time>
      </trkpt>
      <trkpt lat="46.06368" lon="4.57397">
        <ele>401.39999389648</ele>
        <time>2019-07-17T08:31:49.000Z</time>
      </trkpt>
      <trkpt lat="46.06365" lon="4.57392">
        <ele>402</ele>
        <time>2019-07-17T08:31:51.000Z</time>
      </trkpt>
      <trkpt lat="46.06362" lon="4.57386">
        <ele>402.39999389648</ele>
        <time>2019-07-17T08:31:53.000Z</time>
      </trkpt>
      <trkpt lat="46.06356" lon="4.57372">
        <ele>403.60000610352</ele>
        <time>2019-07-17T08:31:58.000Z</time>
      </trkpt>
      <trkpt lat="46.06351" lon="4.57356">
        <ele>404.79998779297</ele>
        <time>2019-07-17T08:32:03.000Z</time>
      </trkpt>
      <trkpt lat="46.06349" lon="4.57349">
        <ele>405</ele>
        <time>2019-07-17T08:32:05.000Z</time>
      </trkpt>
      <trkpt lat="46.06347" lon="4.5734">
        <ele>405.60000610352</ele>
        <time>2019-07-17T08:32:08.000Z</time>
      </trkpt>
      <trkpt lat="46.06345" lon="4.57327">
        <ele>406.79998779297</ele>
        <time>2019-07-17T08:32:12.000Z</time>
      </trkpt>
      <trkpt lat="46.06343" lon="4.57317">
        <ele>407.60000610352</ele>
        <time>2019-07-17T08:32:15.000Z</time>
      </trkpt>
      <trkpt lat="46.06341" lon="4.57302">
        <ele>409.39999389648</ele>
        <time>2019-07-17T08:32:20.000Z</time>
      </trkpt>
      <trkpt lat="46.0634" lon="4.57299">
        <ele>409.79998779297</ele>
        <time>2019-07-17T08:32:21.000Z</time>
      </trkpt>
      <trkpt lat="46.06336" lon="4.57279">
        <ele>411.79998779297</ele>
        <time>2019-07-17T08:32:27.000Z</time>
      </trkpt>
      <trkpt lat="46.06334" lon="4.57273">
        <ele>412.20001220703</ele>
        <time>2019-07-17T08:32:29.000Z</time>
      </trkpt>
      <trkpt lat="46.06333" lon="4.57267">
        <ele>412.79998779297</ele>
        <time>2019-07-17T08:32:31.000Z</time>
      </trkpt>
      <trkpt lat="46.06331" lon="4.57255">
        <ele>414</ele>
        <time>2019-07-17T08:32:35.000Z</time>
      </trkpt>
      <trkpt lat="46.0633" lon="4.57248">
        <ele>414.60000610352</ele>
        <time>2019-07-17T08:32:37.000Z</time>
      </trkpt>
      <trkpt lat="46.06327" lon="4.57235">
        <ele>415.79998779297</ele>
        <time>2019-07-17T08:32:41.000Z</time>
      </trkpt>
      <trkpt lat="46.06327" lon="4.57232">
        <ele>416</ele>
        <time>2019-07-17T08:32:42.000Z</time>
      </trkpt>
      <trkpt lat="46.06324" lon="4.5722">
        <ele>417.20001220703</ele>
        <time>2019-07-17T08:32:46.000Z</time>
      </trkpt>
      <trkpt lat="46.06323" lon="4.5721">
        <ele>418.39999389648</ele>
        <time>2019-07-17T08:32:49.000Z</time>
      </trkpt>
      <trkpt lat="46.06322" lon="4.57203">
        <ele>419.39999389648</ele>
        <time>2019-07-17T08:32:51.000Z</time>
      </trkpt>
      <trkpt lat="46.0632" lon="4.57191">
        <ele>420.60000610352</ele>
        <time>2019-07-17T08:32:55.000Z</time>
      </trkpt>
      <trkpt lat="46.06319" lon="4.57185">
        <ele>421.20001220703</ele>
        <time>2019-07-17T08:32:57.000Z</time>
      </trkpt>
      <trkpt lat="46.06316" lon="4.57169">
        <ele>422.79998779297</ele>
        <time>2019-07-17T08:33:02.000Z</time>
      </trkpt>
      <trkpt lat="46.06315" lon="4.57163">
        <ele>423.20001220703</ele>
        <time>2019-07-17T08:33:04.000Z</time>
      </trkpt>
      <trkpt lat="46.06314" lon="4.57157">
        <ele>423.79998779297</ele>
        <time>2019-07-17T08:33:06.000Z</time>
      </trkpt>
      <trkpt lat="46.06309" lon="4.57135">
        <ele>425.79998779297</ele>
        <time>2019-07-17T08:33:13.000Z</time>
      </trkpt>
      <trkpt lat="46.06306" lon="4.57122">
        <ele>426.60000610352</ele>
        <time>2019-07-17T08:33:17.000Z</time>
      </trkpt>
      <trkpt lat="46.06304" lon="4.57116">
        <ele>427</ele>
        <time>2019-07-17T08:33:19.000Z</time>
      </trkpt>
      <trkpt lat="46.06299" lon="4.57101">
        <ele>428.20001220703</ele>
        <time>2019-07-17T08:33:24.000Z</time>
      </trkpt>
      <trkpt lat="46.06297" lon="4.57095">
        <ele>428.39999389648</ele>
        <time>2019-07-17T08:33:26.000Z</time>
      </trkpt>
      <trkpt lat="46.06295" lon="4.57089">
        <ele>429</ele>
        <time>2019-07-17T08:33:28.000Z</time>
      </trkpt>
      <trkpt lat="46.0629" lon="4.57074">
        <ele>430</ele>
        <time>2019-07-17T08:33:33.000Z</time>
      </trkpt>
      <trkpt lat="46.06288" lon="4.57069">
        <ele>430.20001220703</ele>
        <time>2019-07-17T08:33:35.000Z</time>
      </trkpt>
      <trkpt lat="46.0628" lon="4.57048">
        <ele>431.39999389648</ele>
        <time>2019-07-17T08:33:42.000Z</time>
      </trkpt>
      <trkpt lat="46.06277" lon="4.57039">
        <ele>432</ele>
        <time>2019-07-17T08:33:45.000Z</time>
      </trkpt>
      <trkpt lat="46.06275" lon="4.5703">
        <ele>432.60000610352</ele>
        <time>2019-07-17T08:33:48.000Z</time>
      </trkpt>
      <trkpt lat="46.06274" lon="4.57024">
        <ele>433.20001220703</ele>
        <time>2019-07-17T08:33:50.000Z</time>
      </trkpt>
      <trkpt lat="46.06271" lon="4.57007">
        <ele>434.60000610352</ele>
        <time>2019-07-17T08:33:55.000Z</time>
      </trkpt>
      <trkpt lat="46.06271" lon="4.56997">
        <ele>435.60000610352</ele>
        <time>2019-07-17T08:33:58.000Z</time>
      </trkpt>
      <trkpt lat="46.06271" lon="4.56994">
        <ele>436</ele>
        <time>2019-07-17T08:33:59.000Z</time>
      </trkpt>
      <trkpt lat="46.06272" lon="4.56973">
        <ele>438.39999389648</ele>
        <time>2019-07-17T08:34:06.000Z</time>
      </trkpt>
      <trkpt lat="46.06273" lon="4.5697">
        <ele>438.79998779297</ele>
        <time>2019-07-17T08:34:07.000Z</time>
      </trkpt>
      <trkpt lat="46.06273" lon="4.5696">
        <ele>439.60000610352</ele>
        <time>2019-07-17T08:34:10.000Z</time>
      </trkpt>
      <trkpt lat="46.06273" lon="4.56947">
        <ele>441.20001220703</ele>
        <time>2019-07-17T08:34:14.000Z</time>
      </trkpt>
      <trkpt lat="46.06272" lon="4.56934">
        <ele>443.20001220703</ele>
        <time>2019-07-17T08:34:18.000Z</time>
      </trkpt>
      <trkpt lat="46.06271" lon="4.56925">
        <ele>444.39999389648</ele>
        <time>2019-07-17T08:34:21.000Z</time>
      </trkpt>
      <trkpt lat="46.0627" lon="4.56922">
        <ele>444.79998779297</ele>
        <time>2019-07-17T08:34:22.000Z</time>
      </trkpt>
      <trkpt lat="46.06262" lon="4.56899">
        <ele>447</ele>
        <time>2019-07-17T08:34:29.000Z</time>
      </trkpt>
      <trkpt lat="46.06259" lon="4.5689">
        <ele>447.60000610352</ele>
        <time>2019-07-17T08:34:32.000Z</time>
      </trkpt>
      <trkpt lat="46.06257" lon="4.56888">
        <ele>447.79998779297</ele>
        <time>2019-07-17T08:34:33.000Z</time>
      </trkpt>
      <trkpt lat="46.06246" lon="4.5687">
        <ele>448.39999389648</ele>
        <time>2019-07-17T08:34:40.000Z</time>
      </trkpt>
      <trkpt lat="46.06244" lon="4.56868">
        <ele>448.39999389648</ele>
        <time>2019-07-17T08:34:41.000Z</time>
      </trkpt>
      <trkpt lat="46.06239" lon="4.56863">
        <ele>448</ele>
        <time>2019-07-17T08:34:44.000Z</time>
      </trkpt>
      <trkpt lat="46.06233" lon="4.56858">
        <ele>447.60000610352</ele>
        <time>2019-07-17T08:34:47.000Z</time>
      </trkpt>
      <trkpt lat="46.06229" lon="4.56854">
        <ele>447.39999389648</ele>
        <time>2019-07-17T08:34:49.000Z</time>
      </trkpt>
      <trkpt lat="46.06221" lon="4.56843">
        <ele>447</ele>
        <time>2019-07-17T08:34:54.000Z</time>
      </trkpt>
      <trkpt lat="46.06216" lon="4.56836">
        <ele>446.60000610352</ele>
        <time>2019-07-17T08:34:57.000Z</time>
      </trkpt>
      <trkpt lat="46.06213" lon="4.56831">
        <ele>446.39999389648</ele>
        <time>2019-07-17T08:34:59.000Z</time>
      </trkpt>
      <trkpt lat="46.06209" lon="4.56823">
        <ele>446.60000610352</ele>
        <time>2019-07-17T08:35:02.000Z</time>
      </trkpt>
      <trkpt lat="46.06205" lon="4.56815">
        <ele>446.60000610352</ele>
        <time>2019-07-17T08:35:05.000Z</time>
      </trkpt>
      <trkpt lat="46.06201" lon="4.56797">
        <ele>448</ele>
        <time>2019-07-17T08:35:11.000Z</time>
      </trkpt>
      <trkpt lat="46.06201" lon="4.56794">
        <ele>448.39999389648</ele>
        <time>2019-07-17T08:35:12.000Z</time>
      </trkpt>
      <trkpt lat="46.06201" lon="4.56784">
        <ele>449.60000610352</ele>
        <time>2019-07-17T08:35:15.000Z</time>
      </trkpt>
      <trkpt lat="46.06201" lon="4.56775">
        <ele>449.60000610352</ele>
        <time>2019-07-17T08:35:18.000Z</time>
      </trkpt>
      <trkpt lat="46.06203" lon="4.56766">
        <ele>450</ele>
        <time>2019-07-17T08:35:21.000Z</time>
      </trkpt>
      <trkpt lat="46.06205" lon="4.56754">
        <ele>450.79998779297</ele>
        <time>2019-07-17T08:35:25.000Z</time>
      </trkpt>
      <trkpt lat="46.06206" lon="4.56752">
        <ele>451.20001220703</ele>
        <time>2019-07-17T08:35:26.000Z</time>
      </trkpt>
      <trkpt lat="46.06213" lon="4.56732">
        <ele>454</ele>
        <time>2019-07-17T08:35:33.000Z</time>
      </trkpt>
      <trkpt lat="46.06215" lon="4.56726">
        <ele>454.79998779297</ele>
        <time>2019-07-17T08:35:35.000Z</time>
      </trkpt>
      <trkpt lat="46.06219" lon="4.56714">
        <ele>456.20001220703</ele>
        <time>2019-07-17T08:35:39.000Z</time>
      </trkpt>
      <trkpt lat="46.0622" lon="4.56708">
        <ele>457</ele>
        <time>2019-07-17T08:35:41.000Z</time>
      </trkpt>
      <trkpt lat="46.06225" lon="4.56693">
        <ele>458.39999389648</ele>
        <time>2019-07-17T08:35:46.000Z</time>
      </trkpt>
      <trkpt lat="46.06227" lon="4.56684">
        <ele>459.20001220703</ele>
        <time>2019-07-17T08:35:49.000Z</time>
      </trkpt>
      <trkpt lat="46.06229" lon="4.56675">
        <ele>459.79998779297</ele>
        <time>2019-07-17T08:35:52.000Z</time>
      </trkpt>
      <trkpt lat="46.06232" lon="4.56664">
        <ele>460.60000610352</ele>
        <time>2019-07-17T08:35:56.000Z</time>
      </trkpt>
      <trkpt lat="46.06234" lon="4.56655">
        <ele>461.20001220703</ele>
        <time>2019-07-17T08:35:59.000Z</time>
      </trkpt>
      <trkpt lat="46.06238" lon="4.56643">
        <ele>462.39999389648</ele>
        <time>2019-07-17T08:36:03.000Z</time>
      </trkpt>
      <trkpt lat="46.06239" lon="4.56638">
        <ele>462.79998779297</ele>
        <time>2019-07-17T08:36:05.000Z</time>
      </trkpt>
      <trkpt lat="46.06243" lon="4.56626">
        <ele>463.79998779297</ele>
        <time>2019-07-17T08:36:09.000Z</time>
      </trkpt>
      <trkpt lat="46.06244" lon="4.56623">
        <ele>464.20001220703</ele>
        <time>2019-07-17T08:36:10.000Z</time>
      </trkpt>
      <trkpt lat="46.06249" lon="4.56603">
        <ele>465.20001220703</ele>
        <time>2019-07-17T08:36:17.000Z</time>
      </trkpt>
      <trkpt lat="46.0625" lon="4.56593">
        <ele>465</ele>
        <time>2019-07-17T08:36:20.000Z</time>
      </trkpt>
      <trkpt lat="46.06251" lon="4.56584">
        <ele>465.20001220703</ele>
        <time>2019-07-17T08:36:23.000Z</time>
      </trkpt>
      <trkpt lat="46.06255" lon="4.56566">
        <ele>465.60000610352</ele>
        <time>2019-07-17T08:36:29.000Z</time>
      </trkpt>
      <trkpt lat="46.06257" lon="4.5656">
        <ele>465.79998779297</ele>
        <time>2019-07-17T08:36:31.000Z</time>
      </trkpt>
      <trkpt lat="46.06261" lon="4.56544">
        <ele>465</ele>
        <time>2019-07-17T08:36:36.000Z</time>
      </trkpt>
      <trkpt lat="46.06262" lon="4.56538">
        <ele>464.79998779297</ele>
        <time>2019-07-17T08:36:38.000Z</time>
      </trkpt>
      <trkpt lat="46.06266" lon="4.56527">
        <ele>464.60000610352</ele>
        <time>2019-07-17T08:36:42.000Z</time>
      </trkpt>
      <trkpt lat="46.06268" lon="4.56521">
        <ele>464.79998779297</ele>
        <time>2019-07-17T08:36:44.000Z</time>
      </trkpt>
      <trkpt lat="46.06274" lon="4.56511">
        <ele>465.39999389648</ele>
        <time>2019-07-17T08:36:48.000Z</time>
      </trkpt>
      <trkpt lat="46.06278" lon="4.56504">
        <ele>465.60000610352</ele>
        <time>2019-07-17T08:36:51.000Z</time>
      </trkpt>
      <trkpt lat="46.06282" lon="4.56497">
        <ele>465.20001220703</ele>
        <time>2019-07-17T08:36:54.000Z</time>
      </trkpt>
      <trkpt lat="46.0629" lon="4.56486">
        <ele>465.20001220703</ele>
        <time>2019-07-17T08:36:59.000Z</time>
      </trkpt>
      <trkpt lat="46.06292" lon="4.56484">
        <ele>465</ele>
        <time>2019-07-17T08:37:00.000Z</time>
      </trkpt>
      <trkpt lat="46.06296" lon="4.56478">
        <ele>465</ele>
        <time>2019-07-17T08:37:03.000Z</time>
      </trkpt>
      <trkpt lat="46.06302" lon="4.56472">
        <ele>465</ele>
        <time>2019-07-17T08:37:06.000Z</time>
      </trkpt>
      <trkpt lat="46.06305" lon="4.56467">
        <ele>465</ele>
        <time>2019-07-17T08:37:08.000Z</time>
      </trkpt>
      <trkpt lat="46.06312" lon="4.56459">
        <ele>465.20001220703</ele>
        <time>2019-07-17T08:37:12.000Z</time>
      </trkpt>
      <trkpt lat="46.06319" lon="4.56451">
        <ele>466</ele>
        <time>2019-07-17T08:37:16.000Z</time>
      </trkpt>
      <trkpt lat="46.06322" lon="4.56447">
        <ele>466.39999389648</ele>
        <time>2019-07-17T08:37:18.000Z</time>
      </trkpt>
      <trkpt lat="46.06334" lon="4.56436">
        <ele>468.20001220703</ele>
        <time>2019-07-17T08:37:24.000Z</time>
      </trkpt>
      <trkpt lat="46.06341" lon="4.5643">
        <ele>469.60000610352</ele>
        <time>2019-07-17T08:37:28.000Z</time>
      </trkpt>
      <trkpt lat="46.06347" lon="4.56425">
        <ele>470.79998779297</ele>
        <time>2019-07-17T08:37:31.000Z</time>
      </trkpt>
      <trkpt lat="46.0636" lon="4.5642">
        <ele>473.79998779297</ele>
        <time>2019-07-17T08:37:37.000Z</time>
      </trkpt>
      <trkpt lat="46.06377" lon="4.56411">
        <ele>476</ele>
        <time>2019-07-17T08:37:45.000Z</time>
      </trkpt>
      <trkpt lat="46.06379" lon="4.5641">
        <ele>476.39999389648</ele>
        <time>2019-07-17T08:37:46.000Z</time>
      </trkpt>
      <trkpt lat="46.06383" lon="4.56408">
        <ele>477</ele>
        <time>2019-07-17T08:37:48.000Z</time>
      </trkpt>
      <trkpt lat="46.06398" lon="4.56401">
        <ele>478.60000610352</ele>
        <time>2019-07-17T08:37:55.000Z</time>
      </trkpt>
      <trkpt lat="46.06402" lon="4.56398">
        <ele>478.79998779297</ele>
        <time>2019-07-17T08:37:57.000Z</time>
      </trkpt>
      <trkpt lat="46.0641" lon="4.56394">
        <ele>479.39999389648</ele>
        <time>2019-07-17T08:38:01.000Z</time>
      </trkpt>
      <trkpt lat="46.06416" lon="4.56391">
        <ele>480</ele>
        <time>2019-07-17T08:38:04.000Z</time>
      </trkpt>
      <trkpt lat="46.06424" lon="4.56385">
        <ele>481</ele>
        <time>2019-07-17T08:38:08.000Z</time>
      </trkpt>
      <trkpt lat="46.06428" lon="4.56382">
        <ele>481.39999389648</ele>
        <time>2019-07-17T08:38:10.000Z</time>
      </trkpt>
      <trkpt lat="46.06431" lon="4.5638">
        <ele>481.79998779297</ele>
        <time>2019-07-17T08:38:12.000Z</time>
      </trkpt>
      <trkpt lat="46.06441" lon="4.56373">
        <ele>483</ele>
        <time>2019-07-17T08:38:17.000Z</time>
      </trkpt>
      <trkpt lat="46.06447" lon="4.56369">
        <ele>483.79998779297</ele>
        <time>2019-07-17T08:38:20.000Z</time>
      </trkpt>
      <trkpt lat="46.06451" lon="4.56365">
        <ele>484.20001220703</ele>
        <time>2019-07-17T08:38:22.000Z</time>
      </trkpt>
      <trkpt lat="46.0646" lon="4.56357">
        <ele>484.79998779297</ele>
        <time>2019-07-17T08:38:27.000Z</time>
      </trkpt>
      <trkpt lat="46.06464" lon="4.56354">
        <ele>485.20001220703</ele>
        <time>2019-07-17T08:38:29.000Z</time>
      </trkpt>
      <trkpt lat="46.06471" lon="4.56347">
        <ele>485.39999389648</ele>
        <time>2019-07-17T08:38:33.000Z</time>
      </trkpt>
      <trkpt lat="46.06473" lon="4.56345">
        <ele>485.39999389648</ele>
        <time>2019-07-17T08:38:34.000Z</time>
      </trkpt>
      <trkpt lat="46.06485" lon="4.56337">
        <ele>486.39999389648</ele>
        <time>2019-07-17T08:38:40.000Z</time>
      </trkpt>
      <trkpt lat="46.06494" lon="4.5633">
        <ele>487.20001220703</ele>
        <time>2019-07-17T08:38:45.000Z</time>
      </trkpt>
      <trkpt lat="46.06506" lon="4.56322">
        <ele>488.20001220703</ele>
        <time>2019-07-17T08:38:51.000Z</time>
      </trkpt>
      <trkpt lat="46.06512" lon="4.56316">
        <ele>488.60000610352</ele>
        <time>2019-07-17T08:38:54.000Z</time>
      </trkpt>
      <trkpt lat="46.06519" lon="4.5631">
        <ele>489.79998779297</ele>
        <time>2019-07-17T08:38:58.000Z</time>
      </trkpt>
      <trkpt lat="46.06523" lon="4.56307">
        <ele>490.39999389648</ele>
        <time>2019-07-17T08:39:00.000Z</time>
      </trkpt>
      <trkpt lat="46.0653" lon="4.56302">
        <ele>492</ele>
        <time>2019-07-17T08:39:04.000Z</time>
      </trkpt>
      <trkpt lat="46.06532" lon="4.56301">
        <ele>492.39999389648</ele>
        <time>2019-07-17T08:39:05.000Z</time>
      </trkpt>
      <trkpt lat="46.06538" lon="4.56296">
        <ele>493.39999389648</ele>
        <time>2019-07-17T08:39:08.000Z</time>
      </trkpt>
      <trkpt lat="46.06541" lon="4.56296">
        <ele>494.20001220703</ele>
        <time>2019-07-17T08:39:09.000Z</time>
      </trkpt>
      <trkpt lat="46.06545" lon="4.563">
        <ele>496.20001220703</ele>
        <time>2019-07-17T08:39:11.000Z</time>
      </trkpt>
      <trkpt lat="46.06545" lon="4.56309">
        <ele>497.39999389648</ele>
        <time>2019-07-17T08:39:14.000Z</time>
      </trkpt>
      <trkpt lat="46.06538" lon="4.56316">
        <ele>496.60000610352</ele>
        <time>2019-07-17T08:39:17.000Z</time>
      </trkpt>
      <trkpt lat="46.0653" lon="4.56324">
        <ele>495.39999389648</ele>
        <time>2019-07-17T08:39:20.000Z</time>
      </trkpt>
      <trkpt lat="46.06526" lon="4.56328">
        <ele>494.60000610352</ele>
        <time>2019-07-17T08:39:22.000Z</time>
      </trkpt>
      <trkpt lat="46.06517" lon="4.56338">
        <ele>494.60000610352</ele>
        <time>2019-07-17T08:39:26.000Z</time>
      </trkpt>
      <trkpt lat="46.06502" lon="4.56362">
        <ele>495.79998779297</ele>
        <time>2019-07-17T08:39:34.000Z</time>
      </trkpt>
      <trkpt lat="46.06488" lon="4.5639">
        <ele>497.60000610352</ele>
        <time>2019-07-17T08:39:43.000Z</time>
      </trkpt>
      <trkpt lat="46.06486" lon="4.56393">
        <ele>497.79998779297</ele>
        <time>2019-07-17T08:39:44.000Z</time>
      </trkpt>
      <trkpt lat="46.06477" lon="4.56411">
        <ele>499</ele>
        <time>2019-07-17T08:39:50.000Z</time>
      </trkpt>
      <trkpt lat="46.06467" lon="4.56429">
        <ele>499.79998779297</ele>
        <time>2019-07-17T08:39:56.000Z</time>
      </trkpt>
      <trkpt lat="46.06461" lon="4.56441">
        <ele>500.79998779297</ele>
        <time>2019-07-17T08:40:00.000Z</time>
      </trkpt>
      <trkpt lat="46.06456" lon="4.5645">
        <ele>501.60000610352</ele>
        <time>2019-07-17T08:40:03.000Z</time>
      </trkpt>
      <trkpt lat="46.06446" lon="4.56469">
        <ele>503</ele>
        <time>2019-07-17T08:40:09.000Z</time>
      </trkpt>
      <trkpt lat="46.0644" lon="4.5648">
        <ele>503.79998779297</ele>
        <time>2019-07-17T08:40:13.000Z</time>
      </trkpt>
      <trkpt lat="46.06433" lon="4.56493">
        <ele>504.79998779297</ele>
        <time>2019-07-17T08:40:17.000Z</time>
      </trkpt>
      <trkpt lat="46.06427" lon="4.56505">
        <ele>505.20001220703</ele>
        <time>2019-07-17T08:40:21.000Z</time>
      </trkpt>
      <trkpt lat="46.06419" lon="4.5652">
        <ele>505.79998779297</ele>
        <time>2019-07-17T08:40:26.000Z</time>
      </trkpt>
      <trkpt lat="46.06418" lon="4.56523">
        <ele>505.79998779297</ele>
        <time>2019-07-17T08:40:27.000Z</time>
      </trkpt>
      <trkpt lat="46.06412" lon="4.56535">
        <ele>506.39999389648</ele>
        <time>2019-07-17T08:40:31.000Z</time>
      </trkpt>
      <trkpt lat="46.06408" lon="4.5654">
        <ele>505.79998779297</ele>
        <time>2019-07-17T08:40:33.000Z</time>
      </trkpt>
      <trkpt lat="46.06399" lon="4.56567">
        <ele>506.39999389648</ele>
        <time>2019-07-17T08:40:41.000Z</time>
      </trkpt>
      <trkpt lat="46.06403" lon="4.56579">
        <ele>508.20001220703</ele>
        <time>2019-07-17T08:40:45.000Z</time>
      </trkpt>
      <trkpt lat="46.06406" lon="4.56578">
        <ele>508.79998779297</ele>
        <time>2019-07-17T08:40:46.000Z</time>
      </trkpt>
      <trkpt lat="46.06417" lon="4.56569">
        <ele>510</ele>
        <time>2019-07-17T08:40:51.000Z</time>
      </trkpt>
      <trkpt lat="46.06419" lon="4.56566">
        <ele>510.20001220703</ele>
        <time>2019-07-17T08:40:52.000Z</time>
      </trkpt>
      <trkpt lat="46.06433" lon="4.56547">
        <ele>512</ele>
        <time>2019-07-17T08:40:59.000Z</time>
      </trkpt>
      <trkpt lat="46.06438" lon="4.56542">
        <ele>512.59997558594</ele>
        <time>2019-07-17T08:41:01.000Z</time>
      </trkpt>
      <trkpt lat="46.06447" lon="4.5653">
        <ele>513.59997558594</ele>
        <time>2019-07-17T08:41:06.000Z</time>
      </trkpt>
      <trkpt lat="46.06451" lon="4.56525">
        <ele>513.79998779297</ele>
        <time>2019-07-17T08:41:08.000Z</time>
      </trkpt>
      <trkpt lat="46.06457" lon="4.56519">
        <ele>514.20001220703</ele>
        <time>2019-07-17T08:41:11.000Z</time>
      </trkpt>
      <trkpt lat="46.06464" lon="4.56513">
        <ele>514.59997558594</ele>
        <time>2019-07-17T08:41:14.000Z</time>
      </trkpt>
      <trkpt lat="46.06466" lon="4.56511">
        <ele>514.59997558594</ele>
        <time>2019-07-17T08:41:15.000Z</time>
      </trkpt>
      <trkpt lat="46.06481" lon="4.56497">
        <ele>515</ele>
        <time>2019-07-17T08:41:22.000Z</time>
      </trkpt>
      <trkpt lat="46.06484" lon="4.56492">
        <ele>514.79998779297</ele>
        <time>2019-07-17T08:41:24.000Z</time>
      </trkpt>
      <trkpt lat="46.06491" lon="4.56487">
        <ele>514.79998779297</ele>
        <time>2019-07-17T08:41:27.000Z</time>
      </trkpt>
      <trkpt lat="46.06499" lon="4.56478">
        <ele>514.79998779297</ele>
        <time>2019-07-17T08:41:31.000Z</time>
      </trkpt>
      <trkpt lat="46.06503" lon="4.56475">
        <ele>515</ele>
        <time>2019-07-17T08:41:33.000Z</time>
      </trkpt>
      <trkpt lat="46.06514" lon="4.56466">
        <ele>516.40002441406</ele>
        <time>2019-07-17T08:41:38.000Z</time>
      </trkpt>
      <trkpt lat="46.06517" lon="4.56464">
        <ele>516.59997558594</ele>
        <time>2019-07-17T08:41:39.000Z</time>
      </trkpt>
      <trkpt lat="46.06528" lon="4.56455">
        <ele>518.40002441406</ele>
        <time>2019-07-17T08:41:44.000Z</time>
      </trkpt>
      <trkpt lat="46.06534" lon="4.56451">
        <ele>519</ele>
        <time>2019-07-17T08:41:47.000Z</time>
      </trkpt>
      <trkpt lat="46.06545" lon="4.56444">
        <ele>520.40002441406</ele>
        <time>2019-07-17T08:41:52.000Z</time>
      </trkpt>
      <trkpt lat="46.0655" lon="4.56441">
        <ele>520.79998779297</ele>
        <time>2019-07-17T08:41:54.000Z</time>
      </trkpt>
      <trkpt lat="46.06556" lon="4.56437">
        <ele>521.79998779297</ele>
        <time>2019-07-17T08:41:57.000Z</time>
      </trkpt>
      <trkpt lat="46.06565" lon="4.56433">
        <ele>523</ele>
        <time>2019-07-17T08:42:01.000Z</time>
      </trkpt>
      <trkpt lat="46.0657" lon="4.5643">
        <ele>523.40002441406</ele>
        <time>2019-07-17T08:42:03.000Z</time>
      </trkpt>
      <trkpt lat="46.06577" lon="4.56427">
        <ele>524.20001220703</ele>
        <time>2019-07-17T08:42:06.000Z</time>
      </trkpt>
      <trkpt lat="46.06586" lon="4.56423">
        <ele>525.40002441406</ele>
        <time>2019-07-17T08:42:10.000Z</time>
      </trkpt>
      <trkpt lat="46.0659" lon="4.56421">
        <ele>525.79998779297</ele>
        <time>2019-07-17T08:42:12.000Z</time>
      </trkpt>
      <trkpt lat="46.06592" lon="4.5642">
        <ele>526</ele>
        <time>2019-07-17T08:42:13.000Z</time>
      </trkpt>
      <trkpt lat="46.06603" lon="4.56416">
        <ele>527.59997558594</ele>
        <time>2019-07-17T08:42:18.000Z</time>
      </trkpt>
      <trkpt lat="46.06608" lon="4.56414">
        <ele>528.20001220703</ele>
        <time>2019-07-17T08:42:21.000Z</time>
      </trkpt>
      <trkpt lat="46.06616" lon="4.56409">
        <ele>529.40002441406</ele>
        <time>2019-07-17T08:42:25.000Z</time>
      </trkpt>
      <trkpt lat="46.06625" lon="4.56404">
        <ele>531.20001220703</ele>
        <time>2019-07-17T08:42:29.000Z</time>
      </trkpt>
      <trkpt lat="46.0663" lon="4.56401">
        <ele>531.79998779297</ele>
        <time>2019-07-17T08:42:31.000Z</time>
      </trkpt>
      <trkpt lat="46.06638" lon="4.56394">
        <ele>532.79998779297</ele>
        <time>2019-07-17T08:42:35.000Z</time>
      </trkpt>
      <trkpt lat="46.0664" lon="4.56392">
        <ele>533</ele>
        <time>2019-07-17T08:42:36.000Z</time>
      </trkpt>
      <trkpt lat="46.06647" lon="4.56384">
        <ele>533.79998779297</ele>
        <time>2019-07-17T08:42:40.000Z</time>
      </trkpt>
      <trkpt lat="46.06651" lon="4.5638">
        <ele>534</ele>
        <time>2019-07-17T08:42:42.000Z</time>
      </trkpt>
      <trkpt lat="46.06659" lon="4.56369">
        <ele>535.79998779297</ele>
        <time>2019-07-17T08:42:47.000Z</time>
      </trkpt>
      <trkpt lat="46.0666" lon="4.56366">
        <ele>536.20001220703</ele>
        <time>2019-07-17T08:42:48.000Z</time>
      </trkpt>
      <trkpt lat="46.06667" lon="4.56352">
        <ele>537.20001220703</ele>
        <time>2019-07-17T08:42:53.000Z</time>
      </trkpt>
      <trkpt lat="46.06672" lon="4.56337">
        <ele>538</ele>
        <time>2019-07-17T08:42:58.000Z</time>
      </trkpt>
      <trkpt lat="46.06673" lon="4.56334">
        <ele>538</ele>
        <time>2019-07-17T08:42:59.000Z</time>
      </trkpt>
      <trkpt lat="46.06681" lon="4.56316">
        <ele>539</ele>
        <time>2019-07-17T08:43:05.000Z</time>
      </trkpt>
      <trkpt lat="46.06691" lon="4.56297">
        <ele>539.59997558594</ele>
        <time>2019-07-17T08:43:12.000Z</time>
      </trkpt>
      <trkpt lat="46.06697" lon="4.56288">
        <ele>540.40002441406</ele>
        <time>2019-07-17T08:43:16.000Z</time>
      </trkpt>
      <trkpt lat="46.06702" lon="4.5628">
        <ele>540.59997558594</ele>
        <time>2019-07-17T08:43:19.000Z</time>
      </trkpt>
      <trkpt lat="46.06705" lon="4.56276">
        <ele>540.79998779297</ele>
        <time>2019-07-17T08:43:21.000Z</time>
      </trkpt>
      <trkpt lat="46.06716" lon="4.56265">
        <ele>541.59997558594</ele>
        <time>2019-07-17T08:43:27.000Z</time>
      </trkpt>
      <trkpt lat="46.06723" lon="4.56257">
        <ele>542.20001220703</ele>
        <time>2019-07-17T08:43:31.000Z</time>
      </trkpt>
      <trkpt lat="46.06729" lon="4.56253">
        <ele>543</ele>
        <time>2019-07-17T08:43:34.000Z</time>
      </trkpt>
      <trkpt lat="46.06735" lon="4.56248">
        <ele>543.40002441406</ele>
        <time>2019-07-17T08:43:37.000Z</time>
      </trkpt>
      <trkpt lat="46.06744" lon="4.56241">
        <ele>544</ele>
        <time>2019-07-17T08:43:41.000Z</time>
      </trkpt>
      <trkpt lat="46.06749" lon="4.56238">
        <ele>544.20001220703</ele>
        <time>2019-07-17T08:43:43.000Z</time>
      </trkpt>
      <trkpt lat="46.0676" lon="4.56231">
        <ele>545.59997558594</ele>
        <time>2019-07-17T08:43:48.000Z</time>
      </trkpt>
      <trkpt lat="46.06766" lon="4.56226">
        <ele>546.20001220703</ele>
        <time>2019-07-17T08:43:51.000Z</time>
      </trkpt>
      <trkpt lat="46.06771" lon="4.56223">
        <ele>546.79998779297</ele>
        <time>2019-07-17T08:43:53.000Z</time>
      </trkpt>
      <trkpt lat="46.06784" lon="4.56215">
        <ele>548.79998779297</ele>
        <time>2019-07-17T08:43:59.000Z</time>
      </trkpt>
      <trkpt lat="46.06793" lon="4.5621">
        <ele>550.20001220703</ele>
        <time>2019-07-17T08:44:03.000Z</time>
      </trkpt>
      <trkpt lat="46.06801" lon="4.56205">
        <ele>551.59997558594</ele>
        <time>2019-07-17T08:44:07.000Z</time>
      </trkpt>
      <trkpt lat="46.06804" lon="4.56204">
        <ele>552</ele>
        <time>2019-07-17T08:44:08.000Z</time>
      </trkpt>
      <trkpt lat="46.06811" lon="4.56199">
        <ele>553.20001220703</ele>
        <time>2019-07-17T08:44:12.000Z</time>
      </trkpt>
      <trkpt lat="46.06815" lon="4.56197">
        <ele>553.79998779297</ele>
        <time>2019-07-17T08:44:14.000Z</time>
      </trkpt>
      <trkpt lat="46.06828" lon="4.5619">
        <ele>556.20001220703</ele>
        <time>2019-07-17T08:44:21.000Z</time>
      </trkpt>
      <trkpt lat="46.06832" lon="4.56188">
        <ele>556.79998779297</ele>
        <time>2019-07-17T08:44:23.000Z</time>
      </trkpt>
      <trkpt lat="46.06837" lon="4.56184">
        <ele>557.79998779297</ele>
        <time>2019-07-17T08:44:26.000Z</time>
      </trkpt>
      <trkpt lat="46.06846" lon="4.56178">
        <ele>559.20001220703</ele>
        <time>2019-07-17T08:44:30.000Z</time>
      </trkpt>
      <trkpt lat="46.06854" lon="4.5617">
        <ele>560.40002441406</ele>
        <time>2019-07-17T08:44:35.000Z</time>
      </trkpt>
      <trkpt lat="46.0686" lon="4.56161">
        <ele>562.20001220703</ele>
        <time>2019-07-17T08:44:39.000Z</time>
      </trkpt>
      <trkpt lat="46.06863" lon="4.56156">
        <ele>563.79998779297</ele>
        <time>2019-07-17T08:44:41.000Z</time>
      </trkpt>
      <trkpt lat="46.06867" lon="4.56142">
        <ele>566.40002441406</ele>
        <time>2019-07-17T08:44:46.000Z</time>
      </trkpt>
      <trkpt lat="46.06868" lon="4.56139">
        <ele>567</ele>
        <time>2019-07-17T08:44:47.000Z</time>
      </trkpt>
      <trkpt lat="46.0687" lon="4.5612">
        <ele>569.20001220703</ele>
        <time>2019-07-17T08:44:53.000Z</time>
      </trkpt>
      <trkpt lat="46.0687" lon="4.56114">
        <ele>570</ele>
        <time>2019-07-17T08:44:55.000Z</time>
      </trkpt>
      <trkpt lat="46.06871" lon="4.56104">
        <ele>570.79998779297</ele>
        <time>2019-07-17T08:44:58.000Z</time>
      </trkpt>
      <trkpt lat="46.0687" lon="4.56093">
        <ele>571.40002441406</ele>
        <time>2019-07-17T08:45:01.000Z</time>
      </trkpt>
      <trkpt lat="46.06871" lon="4.56086">
        <ele>572.20001220703</ele>
        <time>2019-07-17T08:45:03.000Z</time>
      </trkpt>
      <trkpt lat="46.06871" lon="4.56076">
        <ele>573.20001220703</ele>
        <time>2019-07-17T08:45:06.000Z</time>
      </trkpt>
      <trkpt lat="46.06871" lon="4.56066">
        <ele>574.20001220703</ele>
        <time>2019-07-17T08:45:09.000Z</time>
      </trkpt>
      <trkpt lat="46.06872" lon="4.56053">
        <ele>575.20001220703</ele>
        <time>2019-07-17T08:45:13.000Z</time>
      </trkpt>
      <trkpt lat="46.06872" lon="4.56046">
        <ele>576</ele>
        <time>2019-07-17T08:45:15.000Z</time>
      </trkpt>
      <trkpt lat="46.06871" lon="4.56023">
        <ele>577.40002441406</ele>
        <time>2019-07-17T08:45:22.000Z</time>
      </trkpt>
      <trkpt lat="46.06871" lon="4.5601">
        <ele>578.20001220703</ele>
        <time>2019-07-17T08:45:26.000Z</time>
      </trkpt>
      <trkpt lat="46.06872" lon="4.56004">
        <ele>578.59997558594</ele>
        <time>2019-07-17T08:45:28.000Z</time>
      </trkpt>
      <trkpt lat="46.06872" lon="4.56001">
        <ele>578.79998779297</ele>
        <time>2019-07-17T08:45:29.000Z</time>
      </trkpt>
      <trkpt lat="46.06871" lon="4.55998">
        <ele>578.79998779297</ele>
        <time>2019-07-17T08:45:30.000Z</time>
      </trkpt>
      <trkpt lat="46.06871" lon="4.55992">
        <ele>578.79998779297</ele>
        <time>2019-07-17T08:45:32.000Z</time>
      </trkpt>
      <trkpt lat="46.06871" lon="4.55988">
        <ele>579</ele>
        <time>2019-07-17T08:45:33.000Z</time>
      </trkpt>
      <trkpt lat="46.06872" lon="4.55983">
        <ele>579.59997558594</ele>
        <time>2019-07-17T08:45:35.000Z</time>
      </trkpt>
      <trkpt lat="46.06871" lon="4.55973">
        <ele>579.79998779297</ele>
        <time>2019-07-17T08:45:38.000Z</time>
      </trkpt>
      <trkpt lat="46.06871" lon="4.55954">
        <ele>580.59997558594</ele>
        <time>2019-07-17T08:45:44.000Z</time>
      </trkpt>
      <trkpt lat="46.06871" lon="4.55951">
        <ele>580.79998779297</ele>
        <time>2019-07-17T08:45:45.000Z</time>
      </trkpt>
      <trkpt lat="46.06871" lon="4.55931">
        <ele>580</ele>
        <time>2019-07-17T08:45:51.000Z</time>
      </trkpt>
      <trkpt lat="46.06872" lon="4.55928">
        <ele>580</ele>
        <time>2019-07-17T08:45:52.000Z</time>
      </trkpt>
      <trkpt lat="46.06875" lon="4.55906">
        <ele>579.79998779297</ele>
        <time>2019-07-17T08:45:59.000Z</time>
      </trkpt>
      <trkpt lat="46.06878" lon="4.55893">
        <ele>580</ele>
        <time>2019-07-17T08:46:03.000Z</time>
      </trkpt>
      <trkpt lat="46.06882" lon="4.55878">
        <ele>580.20001220703</ele>
        <time>2019-07-17T08:46:08.000Z</time>
      </trkpt>
      <trkpt lat="46.06886" lon="4.55866">
        <ele>580.79998779297</ele>
        <time>2019-07-17T08:46:12.000Z</time>
      </trkpt>
      <trkpt lat="46.0689" lon="4.55859">
        <ele>581</ele>
        <time>2019-07-17T08:46:15.000Z</time>
      </trkpt>
      <trkpt lat="46.06898" lon="4.55843">
        <ele>580</ele>
        <time>2019-07-17T08:46:21.000Z</time>
      </trkpt>
      <trkpt lat="46.06901" lon="4.55838">
        <ele>579.59997558594</ele>
        <time>2019-07-17T08:46:23.000Z</time>
      </trkpt>
      <trkpt lat="46.06903" lon="4.55833">
        <ele>579</ele>
        <time>2019-07-17T08:46:25.000Z</time>
      </trkpt>
      <trkpt lat="46.0691" lon="4.55825">
        <ele>578.40002441406</ele>
        <time>2019-07-17T08:46:29.000Z</time>
      </trkpt>
      <trkpt lat="46.06913" lon="4.5582">
        <ele>578</ele>
        <time>2019-07-17T08:46:31.000Z</time>
      </trkpt>
      <trkpt lat="46.0692" lon="4.55813">
        <ele>577.40002441406</ele>
        <time>2019-07-17T08:46:35.000Z</time>
      </trkpt>
      <trkpt lat="46.06924" lon="4.55809">
        <ele>578</ele>
        <time>2019-07-17T08:46:37.000Z</time>
      </trkpt>
      <trkpt lat="46.06928" lon="4.55806">
        <ele>578.59997558594</ele>
        <time>2019-07-17T08:46:39.000Z</time>
      </trkpt>
      <trkpt lat="46.06937" lon="4.55797">
        <ele>580.40002441406</ele>
        <time>2019-07-17T08:46:44.000Z</time>
      </trkpt>
      <trkpt lat="46.06939" lon="4.55796">
        <ele>580.79998779297</ele>
        <time>2019-07-17T08:46:45.000Z</time>
      </trkpt>
      <trkpt lat="46.06942" lon="4.55792">
        <ele>581.40002441406</ele>
        <time>2019-07-17T08:46:47.000Z</time>
      </trkpt>
      <trkpt lat="46.06952" lon="4.55784">
        <ele>583.40002441406</ele>
        <time>2019-07-17T08:46:52.000Z</time>
      </trkpt>
      <trkpt lat="46.06962" lon="4.55775">
        <ele>585.20001220703</ele>
        <time>2019-07-17T08:46:57.000Z</time>
      </trkpt>
      <trkpt lat="46.06967" lon="4.5577">
        <ele>586.59997558594</ele>
        <time>2019-07-17T08:47:00.000Z</time>
      </trkpt>
      <trkpt lat="46.06974" lon="4.55765">
        <ele>588.59997558594</ele>
        <time>2019-07-17T08:47:03.000Z</time>
      </trkpt>
      <trkpt lat="46.0698" lon="4.5576">
        <ele>589.40002441406</ele>
        <time>2019-07-17T08:47:06.000Z</time>
      </trkpt>
      <trkpt lat="46.0699" lon="4.55751">
        <ele>589.20001220703</ele>
        <time>2019-07-17T08:47:11.000Z</time>
      </trkpt>
      <trkpt lat="46.06992" lon="4.5575">
        <ele>589.20001220703</ele>
        <time>2019-07-17T08:47:12.000Z</time>
      </trkpt>
      <trkpt lat="46.07008" lon="4.55735">
        <ele>588.79998779297</ele>
        <time>2019-07-17T08:47:20.000Z</time>
      </trkpt>
      <trkpt lat="46.07019" lon="4.55724">
        <ele>591.40002441406</ele>
        <time>2019-07-17T08:47:26.000Z</time>
      </trkpt>
      <trkpt lat="46.07024" lon="4.55711">
        <ele>594.20001220703</ele>
        <time>2019-07-17T08:47:30.000Z</time>
      </trkpt>
      <trkpt lat="46.07024" lon="4.55707">
        <ele>595</ele>
        <time>2019-07-17T08:47:31.000Z</time>
      </trkpt>
      <trkpt lat="46.07023" lon="4.55697">
        <ele>596.79998779297</ele>
        <time>2019-07-17T08:47:34.000Z</time>
      </trkpt>
      <trkpt lat="46.07023" lon="4.55688">
        <ele>598.20001220703</ele>
        <time>2019-07-17T08:47:37.000Z</time>
      </trkpt>
      <trkpt lat="46.0702" lon="4.55681">
        <ele>599.20001220703</ele>
        <time>2019-07-17T08:47:40.000Z</time>
      </trkpt>
      <trkpt lat="46.07018" lon="4.55676">
        <ele>600</ele>
        <time>2019-07-17T08:47:42.000Z</time>
      </trkpt>
      <trkpt lat="46.07016" lon="4.55667">
        <ele>601.20001220703</ele>
        <time>2019-07-17T08:47:45.000Z</time>
      </trkpt>
      <trkpt lat="46.07013" lon="4.55654">
        <ele>603</ele>
        <time>2019-07-17T08:47:49.000Z</time>
      </trkpt>
      <trkpt lat="46.07011" lon="4.55648">
        <ele>604.20001220703</ele>
        <time>2019-07-17T08:47:51.000Z</time>
      </trkpt>
      <trkpt lat="46.07009" lon="4.55642">
        <ele>605.20001220703</ele>
        <time>2019-07-17T08:47:53.000Z</time>
      </trkpt>
      <trkpt lat="46.07004" lon="4.55623">
        <ele>608.59997558594</ele>
        <time>2019-07-17T08:47:59.000Z</time>
      </trkpt>
      <trkpt lat="46.07002" lon="4.55616">
        <ele>609.79998779297</ele>
        <time>2019-07-17T08:48:01.000Z</time>
      </trkpt>
      <trkpt lat="46.06999" lon="4.55604">
        <ele>612</ele>
        <time>2019-07-17T08:48:05.000Z</time>
      </trkpt>
      <trkpt lat="46.06996" lon="4.55595">
        <ele>613.59997558594</ele>
        <time>2019-07-17T08:48:08.000Z</time>
      </trkpt>
      <trkpt lat="46.06993" lon="4.55585">
        <ele>615.20001220703</ele>
        <time>2019-07-17T08:48:11.000Z</time>
      </trkpt>
      <trkpt lat="46.06989" lon="4.55577">
        <ele>616.59997558594</ele>
        <time>2019-07-17T08:48:14.000Z</time>
      </trkpt>
      <trkpt lat="46.06986" lon="4.55573">
        <ele>617.20001220703</ele>
        <time>2019-07-17T08:48:16.000Z</time>
      </trkpt>
      <trkpt lat="46.06985" lon="4.5557">
        <ele>617.59997558594</ele>
        <time>2019-07-17T08:48:17.000Z</time>
      </trkpt>
      <trkpt lat="46.06978" lon="4.5556">
        <ele>618.79998779297</ele>
        <time>2019-07-17T08:48:21.000Z</time>
      </trkpt>
      <trkpt lat="46.06975" lon="4.55556">
        <ele>619.40002441406</ele>
        <time>2019-07-17T08:48:23.000Z</time>
      </trkpt>
      <trkpt lat="46.06972" lon="4.55551">
        <ele>619.59997558594</ele>
        <time>2019-07-17T08:48:25.000Z</time>
      </trkpt>
      <trkpt lat="46.06967" lon="4.55544">
        <ele>619.79998779297</ele>
        <time>2019-07-17T08:48:28.000Z</time>
      </trkpt>
      <trkpt lat="46.06962" lon="4.55538">
        <ele>620</ele>
        <time>2019-07-17T08:48:31.000Z</time>
      </trkpt>
      <trkpt lat="46.0696" lon="4.55533">
        <ele>620.20001220703</ele>
        <time>2019-07-17T08:48:33.000Z</time>
      </trkpt>
      <trkpt lat="46.06954" lon="4.55522">
        <ele>619.59997558594</ele>
        <time>2019-07-17T08:48:37.000Z</time>
      </trkpt>
      <trkpt lat="46.06952" lon="4.5552">
        <ele>619.59997558594</ele>
        <time>2019-07-17T08:48:38.000Z</time>
      </trkpt>
      <trkpt lat="46.06946" lon="4.55501">
        <ele>619.59997558594</ele>
        <time>2019-07-17T08:48:44.000Z</time>
      </trkpt>
      <trkpt lat="46.06943" lon="4.55491">
        <ele>620.40002441406</ele>
        <time>2019-07-17T08:48:47.000Z</time>
      </trkpt>
      <trkpt lat="46.06942" lon="4.55484">
        <ele>621</ele>
        <time>2019-07-17T08:48:49.000Z</time>
      </trkpt>
      <trkpt lat="46.06937" lon="4.55464">
        <ele>622.79998779297</ele>
        <time>2019-07-17T08:48:55.000Z</time>
      </trkpt>
      <trkpt lat="46.06937" lon="4.55461">
        <ele>623.20001220703</ele>
        <time>2019-07-17T08:48:56.000Z</time>
      </trkpt>
      <trkpt lat="46.06934" lon="4.55438">
        <ele>624</ele>
        <time>2019-07-17T08:49:03.000Z</time>
      </trkpt>
      <trkpt lat="46.06934" lon="4.55435">
        <ele>624</ele>
        <time>2019-07-17T08:49:04.000Z</time>
      </trkpt>
      <trkpt lat="46.06934" lon="4.55425">
        <ele>623.79998779297</ele>
        <time>2019-07-17T08:49:07.000Z</time>
      </trkpt>
      <trkpt lat="46.06935" lon="4.55411">
        <ele>624</ele>
        <time>2019-07-17T08:49:11.000Z</time>
      </trkpt>
      <trkpt lat="46.06935" lon="4.55408">
        <ele>624.20001220703</ele>
        <time>2019-07-17T08:49:12.000Z</time>
      </trkpt>
      <trkpt lat="46.06936" lon="4.5539">
        <ele>625.40002441406</ele>
        <time>2019-07-17T08:49:17.000Z</time>
      </trkpt>
      <trkpt lat="46.06937" lon="4.55382">
        <ele>626.20001220703</ele>
        <time>2019-07-17T08:49:19.000Z</time>
      </trkpt>
      <trkpt lat="46.06938" lon="4.55371">
        <ele>627.20001220703</ele>
        <time>2019-07-17T08:49:22.000Z</time>
      </trkpt>
      <trkpt lat="46.0694" lon="4.55349">
        <ele>627.20001220703</ele>
        <time>2019-07-17T08:49:28.000Z</time>
      </trkpt>
      <trkpt lat="46.06941" lon="4.55345">
        <ele>627.20001220703</ele>
        <time>2019-07-17T08:49:29.000Z</time>
      </trkpt>
      <trkpt lat="46.06946" lon="4.55321">
        <ele>628</ele>
        <time>2019-07-17T08:49:36.000Z</time>
      </trkpt>
      <trkpt lat="46.06951" lon="4.55306">
        <ele>629.40002441406</ele>
        <time>2019-07-17T08:49:41.000Z</time>
      </trkpt>
      <trkpt lat="46.06953" lon="4.553">
        <ele>630</ele>
        <time>2019-07-17T08:49:43.000Z</time>
      </trkpt>
      <trkpt lat="46.06959" lon="4.55287">
        <ele>631.79998779297</ele>
        <time>2019-07-17T08:49:48.000Z</time>
      </trkpt>
      <trkpt lat="46.0696" lon="4.55284">
        <ele>632</ele>
        <time>2019-07-17T08:49:49.000Z</time>
      </trkpt>
      <trkpt lat="46.06965" lon="4.55273">
        <ele>632.79998779297</ele>
        <time>2019-07-17T08:49:53.000Z</time>
      </trkpt>
      <trkpt lat="46.06972" lon="4.55259">
        <ele>634</ele>
        <time>2019-07-17T08:49:58.000Z</time>
      </trkpt>
      <trkpt lat="46.06977" lon="4.55248">
        <ele>634.79998779297</ele>
        <time>2019-07-17T08:50:02.000Z</time>
      </trkpt>
      <trkpt lat="46.06981" lon="4.55239">
        <ele>635.40002441406</ele>
        <time>2019-07-17T08:50:05.000Z</time>
      </trkpt>
      <trkpt lat="46.06985" lon="4.55231">
        <ele>635.79998779297</ele>
        <time>2019-07-17T08:50:08.000Z</time>
      </trkpt>
      <trkpt lat="46.06988" lon="4.55222">
        <ele>636</ele>
        <time>2019-07-17T08:50:11.000Z</time>
      </trkpt>
      <trkpt lat="46.06991" lon="4.55213">
        <ele>636.59997558594</ele>
        <time>2019-07-17T08:50:14.000Z</time>
      </trkpt>
      <trkpt lat="46.06995" lon="4.55205">
        <ele>637.40002441406</ele>
        <time>2019-07-17T08:50:17.000Z</time>
      </trkpt>
      <trkpt lat="46.07" lon="4.55191">
        <ele>639</ele>
        <time>2019-07-17T08:50:22.000Z</time>
      </trkpt>
      <trkpt lat="46.07002" lon="4.55189">
        <ele>639.40002441406</ele>
        <time>2019-07-17T08:50:23.000Z</time>
      </trkpt>
      <trkpt lat="46.07004" lon="4.5518">
        <ele>640</ele>
        <time>2019-07-17T08:50:26.000Z</time>
      </trkpt>
      <trkpt lat="46.07009" lon="4.55169">
        <ele>641.20001220703</ele>
        <time>2019-07-17T08:50:30.000Z</time>
      </trkpt>
      <trkpt lat="46.07012" lon="4.55163">
        <ele>641.79998779297</ele>
        <time>2019-07-17T08:50:32.000Z</time>
      </trkpt>
      <trkpt lat="46.07015" lon="4.55152">
        <ele>642.40002441406</ele>
        <time>2019-07-17T08:50:36.000Z</time>
      </trkpt>
      <trkpt lat="46.07018" lon="4.55146">
        <ele>642.79998779297</ele>
        <time>2019-07-17T08:50:38.000Z</time>
      </trkpt>
      <trkpt lat="46.07025" lon="4.55127">
        <ele>644</ele>
        <time>2019-07-17T08:50:45.000Z</time>
      </trkpt>
      <trkpt lat="46.07027" lon="4.55122">
        <ele>644.40002441406</ele>
        <time>2019-07-17T08:50:47.000Z</time>
      </trkpt>
      <trkpt lat="46.07032" lon="4.55112">
        <ele>645.79998779297</ele>
        <time>2019-07-17T08:50:51.000Z</time>
      </trkpt>
      <trkpt lat="46.07035" lon="4.55104">
        <ele>647.20001220703</ele>
        <time>2019-07-17T08:50:54.000Z</time>
      </trkpt>
      <trkpt lat="46.07036" lon="4.55102">
        <ele>647.79998779297</ele>
        <time>2019-07-17T08:50:55.000Z</time>
      </trkpt>
      <trkpt lat="46.07037" lon="4.551">
        <ele>648.20001220703</ele>
        <time>2019-07-17T08:50:56.000Z</time>
      </trkpt>
      <trkpt lat="46.07039" lon="4.55094">
        <ele>649</ele>
        <time>2019-07-17T08:50:58.000Z</time>
      </trkpt>
      <trkpt lat="46.07042" lon="4.55086">
        <ele>650.40002441406</ele>
        <time>2019-07-17T08:51:01.000Z</time>
      </trkpt>
      <trkpt lat="46.07044" lon="4.55083">
        <ele>650.79998779297</ele>
        <time>2019-07-17T08:51:02.000Z</time>
      </trkpt>
      <trkpt lat="46.07047" lon="4.55074">
        <ele>652</ele>
        <time>2019-07-17T08:51:05.000Z</time>
      </trkpt>
      <trkpt lat="46.07048" lon="4.55064">
        <ele>652.79998779297</ele>
        <time>2019-07-17T08:51:08.000Z</time>
      </trkpt>
      <trkpt lat="46.07049" lon="4.55061">
        <ele>652.79998779297</ele>
        <time>2019-07-17T08:51:09.000Z</time>
      </trkpt>
      <trkpt lat="46.07051" lon="4.55045">
        <ele>653.79998779297</ele>
        <time>2019-07-17T08:51:14.000Z</time>
      </trkpt>
      <trkpt lat="46.07051" lon="4.55041">
        <ele>653.79998779297</ele>
        <time>2019-07-17T08:51:15.000Z</time>
      </trkpt>
      <trkpt lat="46.07051" lon="4.55034">
        <ele>654.20001220703</ele>
        <time>2019-07-17T08:51:17.000Z</time>
      </trkpt>
      <trkpt lat="46.07053" lon="4.55024">
        <ele>655.59997558594</ele>
        <time>2019-07-17T08:51:20.000Z</time>
      </trkpt>
      <trkpt lat="46.07055" lon="4.55011">
        <ele>656.79998779297</ele>
        <time>2019-07-17T08:51:24.000Z</time>
      </trkpt>
      <trkpt lat="46.07058" lon="4.54994">
        <ele>658.40002441406</ele>
        <time>2019-07-17T08:51:29.000Z</time>
      </trkpt>
      <trkpt lat="46.07061" lon="4.54982">
        <ele>660</ele>
        <time>2019-07-17T08:51:33.000Z</time>
      </trkpt>
      <trkpt lat="46.07063" lon="4.54973">
        <ele>661.20001220703</ele>
        <time>2019-07-17T08:51:36.000Z</time>
      </trkpt>
      <trkpt lat="46.07064" lon="4.54964">
        <ele>661.79998779297</ele>
        <time>2019-07-17T08:51:39.000Z</time>
      </trkpt>
      <trkpt lat="46.07064" lon="4.54941">
        <ele>663</ele>
        <time>2019-07-17T08:51:46.000Z</time>
      </trkpt>
      <trkpt lat="46.07063" lon="4.54932">
        <ele>663.40002441406</ele>
        <time>2019-07-17T08:51:49.000Z</time>
      </trkpt>
      <trkpt lat="46.07062" lon="4.54922">
        <ele>663.79998779297</ele>
        <time>2019-07-17T08:51:52.000Z</time>
      </trkpt>
      <trkpt lat="46.07062" lon="4.54918">
        <ele>663.79998779297</ele>
        <time>2019-07-17T08:51:53.000Z</time>
      </trkpt>
      <trkpt lat="46.07061" lon="4.54905">
        <ele>664.20001220703</ele>
        <time>2019-07-17T08:51:57.000Z</time>
      </trkpt>
      <trkpt lat="46.07059" lon="4.54895">
        <ele>664.20001220703</ele>
        <time>2019-07-17T08:52:00.000Z</time>
      </trkpt>
      <trkpt lat="46.07058" lon="4.54892">
        <ele>664.40002441406</ele>
        <time>2019-07-17T08:52:01.000Z</time>
      </trkpt>
      <trkpt lat="46.07057" lon="4.54885">
        <ele>664.40002441406</ele>
        <time>2019-07-17T08:52:03.000Z</time>
      </trkpt>
      <trkpt lat="46.07054" lon="4.5487">
        <ele>665</ele>
        <time>2019-07-17T08:52:08.000Z</time>
      </trkpt>
      <trkpt lat="46.07053" lon="4.54866">
        <ele>665.20001220703</ele>
        <time>2019-07-17T08:52:09.000Z</time>
      </trkpt>
      <trkpt lat="46.07049" lon="4.54854">
        <ele>667.40002441406</ele>
        <time>2019-07-17T08:52:13.000Z</time>
      </trkpt>
      <trkpt lat="46.07046" lon="4.54841">
        <ele>669.40002441406</ele>
        <time>2019-07-17T08:52:17.000Z</time>
      </trkpt>
      <trkpt lat="46.07045" lon="4.54837">
        <ele>670</ele>
        <time>2019-07-17T08:52:18.000Z</time>
      </trkpt>
      <trkpt lat="46.07038" lon="4.54822">
        <ele>672</ele>
        <time>2019-07-17T08:52:23.000Z</time>
      </trkpt>
      <trkpt lat="46.07034" lon="4.54817">
        <ele>672.40002441406</ele>
        <time>2019-07-17T08:52:25.000Z</time>
      </trkpt>
      <trkpt lat="46.07026" lon="4.54814">
        <ele>672</ele>
        <time>2019-07-17T08:52:28.000Z</time>
      </trkpt>
      <trkpt lat="46.07009" lon="4.54814">
        <ele>669.59997558594</ele>
        <time>2019-07-17T08:52:34.000Z</time>
      </trkpt>
      <trkpt lat="46.07" lon="4.54815">
        <ele>668</ele>
        <time>2019-07-17T08:52:37.000Z</time>
      </trkpt>
      <trkpt lat="46.06986" lon="4.54814">
        <ele>666</ele>
        <time>2019-07-17T08:52:42.000Z</time>
      </trkpt>
      <trkpt lat="46.06978" lon="4.54811">
        <ele>665.40002441406</ele>
        <time>2019-07-17T08:52:45.000Z</time>
      </trkpt>
      <trkpt lat="46.0697" lon="4.54806">
        <ele>664.79998779297</ele>
        <time>2019-07-17T08:52:48.000Z</time>
      </trkpt>
      <trkpt lat="46.06957" lon="4.54787">
        <ele>665.79998779297</ele>
        <time>2019-07-17T08:52:55.000Z</time>
      </trkpt>
      <trkpt lat="46.06954" lon="4.54764">
        <ele>668</ele>
        <time>2019-07-17T08:53:01.000Z</time>
      </trkpt>
      <trkpt lat="46.06955" lon="4.54744">
        <ele>671</ele>
        <time>2019-07-17T08:53:06.000Z</time>
      </trkpt>
      <trkpt lat="46.06955" lon="4.5474">
        <ele>671.79998779297</ele>
        <time>2019-07-17T08:53:07.000Z</time>
      </trkpt>
      <trkpt lat="46.06957" lon="4.54725">
        <ele>674.40002441406</ele>
        <time>2019-07-17T08:53:11.000Z</time>
      </trkpt>
      <trkpt lat="46.0696" lon="4.5471">
        <ele>677.40002441406</ele>
        <time>2019-07-17T08:53:15.000Z</time>
      </trkpt>
      <trkpt lat="46.06961" lon="4.54707">
        <ele>678</ele>
        <time>2019-07-17T08:53:16.000Z</time>
      </trkpt>
      <trkpt lat="46.06963" lon="4.54693">
        <ele>681.40002441406</ele>
        <time>2019-07-17T08:53:20.000Z</time>
      </trkpt>
      <trkpt lat="46.06965" lon="4.54686">
        <ele>683</ele>
        <time>2019-07-17T08:53:22.000Z</time>
      </trkpt>
      <trkpt lat="46.06967" lon="4.54669">
        <ele>687.20001220703</ele>
        <time>2019-07-17T08:53:27.000Z</time>
      </trkpt>
      <trkpt lat="46.06968" lon="4.54665">
        <ele>688</ele>
        <time>2019-07-17T08:53:28.000Z</time>
      </trkpt>
      <trkpt lat="46.06968" lon="4.54658">
        <ele>689.59997558594</ele>
        <time>2019-07-17T08:53:30.000Z</time>
      </trkpt>
      <trkpt lat="46.06967" lon="4.54641">
        <ele>693</ele>
        <time>2019-07-17T08:53:35.000Z</time>
      </trkpt>
      <trkpt lat="46.06966" lon="4.54637">
        <ele>693.40002441406</ele>
        <time>2019-07-17T08:53:36.000Z</time>
      </trkpt>
      <trkpt lat="46.0696" lon="4.54623">
        <ele>694.59997558594</ele>
        <time>2019-07-17T08:53:41.000Z</time>
      </trkpt>
      <trkpt lat="46.06958" lon="4.54621">
        <ele>694.59997558594</ele>
        <time>2019-07-17T08:53:42.000Z</time>
      </trkpt>
      <trkpt lat="46.06941" lon="4.54605">
        <ele>695</ele>
        <time>2019-07-17T08:53:50.000Z</time>
      </trkpt>
      <trkpt lat="46.0693" lon="4.54592">
        <ele>696</ele>
        <time>2019-07-17T08:53:56.000Z</time>
      </trkpt>
      <trkpt lat="46.06916" lon="4.54574">
        <ele>698</ele>
        <time>2019-07-17T08:54:03.000Z</time>
      </trkpt>
      <trkpt lat="46.069" lon="4.54563">
        <ele>697</ele>
        <time>2019-07-17T08:54:10.000Z</time>
      </trkpt>
      <trkpt lat="46.06893" lon="4.54563">
        <ele>695.40002441406</ele>
        <time>2019-07-17T08:54:13.000Z</time>
      </trkpt>
      <trkpt lat="46.06885" lon="4.54565">
        <ele>693.40002441406</ele>
        <time>2019-07-17T08:54:16.000Z</time>
      </trkpt>
      <trkpt lat="46.06866" lon="4.54568">
        <ele>688.40002441406</ele>
        <time>2019-07-17T08:54:24.000Z</time>
      </trkpt>
      <trkpt lat="46.06853" lon="4.54568">
        <ele>686.40002441406</ele>
        <time>2019-07-17T08:54:29.000Z</time>
      </trkpt>
      <trkpt lat="46.06848" lon="4.54565">
        <ele>686</ele>
        <time>2019-07-17T08:54:31.000Z</time>
      </trkpt>
      <trkpt lat="46.06834" lon="4.54555">
        <ele>686.40002441406</ele>
        <time>2019-07-17T08:54:38.000Z</time>
      </trkpt>
      <trkpt lat="46.06824" lon="4.54538">
        <ele>689.59997558594</ele>
        <time>2019-07-17T08:54:44.000Z</time>
      </trkpt>
      <trkpt lat="46.06817" lon="4.5452">
        <ele>693.79998779297</ele>
        <time>2019-07-17T08:54:50.000Z</time>
      </trkpt>
      <trkpt lat="46.06812" lon="4.545">
        <ele>699</ele>
        <time>2019-07-17T08:54:56.000Z</time>
      </trkpt>
      <trkpt lat="46.06805" lon="4.54481">
        <ele>703.59997558594</ele>
        <time>2019-07-17T08:55:02.000Z</time>
      </trkpt>
      <trkpt lat="46.06803" lon="4.54475">
        <ele>705</ele>
        <time>2019-07-17T08:55:04.000Z</time>
      </trkpt>
      <trkpt lat="46.06801" lon="4.54468">
        <ele>706.59997558594</ele>
        <time>2019-07-17T08:55:06.000Z</time>
      </trkpt>
      <trkpt lat="46.06796" lon="4.5446">
        <ele>708.20001220703</ele>
        <time>2019-07-17T08:55:09.000Z</time>
      </trkpt>
      <trkpt lat="46.06793" lon="4.54454">
        <ele>709.40002441406</ele>
        <time>2019-07-17T08:55:11.000Z</time>
      </trkpt>
      <trkpt lat="46.06789" lon="4.54449">
        <ele>710.40002441406</ele>
        <time>2019-07-17T08:55:13.000Z</time>
      </trkpt>
      <trkpt lat="46.0678" lon="4.54444">
        <ele>710.20001220703</ele>
        <time>2019-07-17T08:55:17.000Z</time>
      </trkpt>
      <trkpt lat="46.06775" lon="4.54441">
        <ele>710.20001220703</ele>
        <time>2019-07-17T08:55:19.000Z</time>
      </trkpt>
      <trkpt lat="46.0677" lon="4.54438">
        <ele>710.40002441406</ele>
        <time>2019-07-17T08:55:21.000Z</time>
      </trkpt>
      <trkpt lat="46.06763" lon="4.54435">
        <ele>710.20001220703</ele>
        <time>2019-07-17T08:55:24.000Z</time>
      </trkpt>
      <trkpt lat="46.06761" lon="4.54434">
        <ele>710</ele>
        <time>2019-07-17T08:55:25.000Z</time>
      </trkpt>
      <trkpt lat="46.06749" lon="4.54425">
        <ele>710.59997558594</ele>
        <time>2019-07-17T08:55:30.000Z</time>
      </trkpt>
      <trkpt lat="46.06745" lon="4.54421">
        <ele>711.40002441406</ele>
        <time>2019-07-17T08:55:32.000Z</time>
      </trkpt>
      <trkpt lat="46.06741" lon="4.54417">
        <ele>712.20001220703</ele>
        <time>2019-07-17T08:55:34.000Z</time>
      </trkpt>
      <trkpt lat="46.06734" lon="4.54411">
        <ele>713.20001220703</ele>
        <time>2019-07-17T08:55:37.000Z</time>
      </trkpt>
      <trkpt lat="46.0673" lon="4.54407">
        <ele>713.79998779297</ele>
        <time>2019-07-17T08:55:39.000Z</time>
      </trkpt>
      <trkpt lat="46.06728" lon="4.54406">
        <ele>713.59997558594</ele>
        <time>2019-07-17T08:55:40.000Z</time>
      </trkpt>
      <trkpt lat="46.06725" lon="4.54404">
        <ele>714</ele>
        <time>2019-07-17T08:55:41.000Z</time>
      </trkpt>
      <trkpt lat="46.06721" lon="4.54402">
        <ele>714.20001220703</ele>
        <time>2019-07-17T08:55:43.000Z</time>
      </trkpt>
      <trkpt lat="46.06714" lon="4.54402">
        <ele>713.79998779297</ele>
        <time>2019-07-17T08:55:46.000Z</time>
      </trkpt>
      <trkpt lat="46.06709" lon="4.54402">
        <ele>712.79998779297</ele>
        <time>2019-07-17T08:55:49.000Z</time>
      </trkpt>
      <trkpt lat="46.06705" lon="4.54403">
        <ele>712.40002441406</ele>
        <time>2019-07-17T08:55:51.000Z</time>
      </trkpt>
      <trkpt lat="46.06701" lon="4.54403">
        <ele>712.20001220703</ele>
        <time>2019-07-17T08:55:53.000Z</time>
      </trkpt>
      <trkpt lat="46.06694" lon="4.54404">
        <ele>710.79998779297</ele>
        <time>2019-07-17T08:55:57.000Z</time>
      </trkpt>
      <trkpt lat="46.06682" lon="4.54411">
        <ele>707.59997558594</ele>
        <time>2019-07-17T08:56:03.000Z</time>
      </trkpt>
      <trkpt lat="46.0668" lon="4.54412">
        <ele>707.20001220703</ele>
        <time>2019-07-17T08:56:04.000Z</time>
      </trkpt>
      <trkpt lat="46.06672" lon="4.54417">
        <ele>706</ele>
        <time>2019-07-17T08:56:09.000Z</time>
      </trkpt>
      <trkpt lat="46.0667" lon="4.54419">
        <ele>705.59997558594</ele>
        <time>2019-07-17T08:56:10.000Z</time>
      </trkpt>
      <trkpt lat="46.06661" lon="4.54421">
        <ele>704.79998779297</ele>
        <time>2019-07-17T08:56:15.000Z</time>
      </trkpt>
      <trkpt lat="46.06656" lon="4.54423">
        <ele>704.59997558594</ele>
        <time>2019-07-17T08:56:18.000Z</time>
      </trkpt>
      <trkpt lat="46.06647" lon="4.54426">
        <ele>703.59997558594</ele>
        <time>2019-07-17T08:56:22.000Z</time>
      </trkpt>
      <trkpt lat="46.06638" lon="4.54431">
        <ele>702.20001220703</ele>
        <time>2019-07-17T08:56:26.000Z</time>
      </trkpt>
      <trkpt lat="46.06636" lon="4.54433">
        <ele>701.59997558594</ele>
        <time>2019-07-17T08:56:27.000Z</time>
      </trkpt>
      <trkpt lat="46.06632" lon="4.54435">
        <ele>700.79998779297</ele>
        <time>2019-07-17T08:56:29.000Z</time>
      </trkpt>
      <trkpt lat="46.06627" lon="4.54437">
        <ele>700.20001220703</ele>
        <time>2019-07-17T08:56:31.000Z</time>
      </trkpt>
      <trkpt lat="46.06622" lon="4.54439">
        <ele>700.20001220703</ele>
        <time>2019-07-17T08:56:33.000Z</time>
      </trkpt>
      <trkpt lat="46.06616" lon="4.54443">
        <ele>700.40002441406</ele>
        <time>2019-07-17T08:56:36.000Z</time>
      </trkpt>
      <trkpt lat="46.06614" lon="4.54445">
        <ele>700.20001220703</ele>
        <time>2019-07-17T08:56:37.000Z</time>
      </trkpt>
      <trkpt lat="46.06611" lon="4.54446">
        <ele>700.20001220703</ele>
        <time>2019-07-17T08:56:38.000Z</time>
      </trkpt>
      <trkpt lat="46.06598" lon="4.54454">
        <ele>699.79998779297</ele>
        <time>2019-07-17T08:56:42.000Z</time>
      </trkpt>
      <trkpt lat="46.06595" lon="4.54455">
        <ele>700</ele>
        <time>2019-07-17T08:56:43.000Z</time>
      </trkpt>
      <trkpt lat="46.06584" lon="4.54463">
        <ele>699</ele>
        <time>2019-07-17T08:56:46.000Z</time>
      </trkpt>
      <trkpt lat="46.06576" lon="4.54466">
        <ele>698.79998779297</ele>
        <time>2019-07-17T08:56:48.000Z</time>
      </trkpt>
      <trkpt lat="46.06569" lon="4.54466">
        <ele>700.20001220703</ele>
        <time>2019-07-17T08:56:50.000Z</time>
      </trkpt>
      <trkpt lat="46.06561" lon="4.54467">
        <ele>702.20001220703</ele>
        <time>2019-07-17T08:56:52.000Z</time>
      </trkpt>
      <trkpt lat="46.06555" lon="4.54465">
        <ele>701.40002441406</ele>
        <time>2019-07-17T08:56:54.000Z</time>
      </trkpt>
      <trkpt lat="46.0655" lon="4.54461">
        <ele>700.79998779297</ele>
        <time>2019-07-17T08:56:56.000Z</time>
      </trkpt>
      <trkpt lat="46.06548" lon="4.54458">
        <ele>700.59997558594</ele>
        <time>2019-07-17T08:56:57.000Z</time>
      </trkpt>
      <trkpt lat="46.06547" lon="4.54455">
        <ele>700.40002441406</ele>
        <time>2019-07-17T08:56:58.000Z</time>
      </trkpt>
      <trkpt lat="46.06545" lon="4.54452">
        <ele>700.40002441406</ele>
        <time>2019-07-17T08:56:59.000Z</time>
      </trkpt>
      <trkpt lat="46.06543" lon="4.54444">
        <ele>700.20001220703</ele>
        <time>2019-07-17T08:57:01.000Z</time>
      </trkpt>
      <trkpt lat="46.06542" lon="4.54436">
        <ele>700</ele>
        <time>2019-07-17T08:57:03.000Z</time>
      </trkpt>
      <trkpt lat="46.06541" lon="4.54427">
        <ele>700.59997558594</ele>
        <time>2019-07-17T08:57:05.000Z</time>
      </trkpt>
      <trkpt lat="46.06541" lon="4.54418">
        <ele>701.79998779297</ele>
        <time>2019-07-17T08:57:07.000Z</time>
      </trkpt>
      <trkpt lat="46.06541" lon="4.54404">
        <ele>703.40002441406</ele>
        <time>2019-07-17T08:57:10.000Z</time>
      </trkpt>
      <trkpt lat="46.0654" lon="4.54392">
        <ele>705</ele>
        <time>2019-07-17T08:57:13.000Z</time>
      </trkpt>
      <trkpt lat="46.0654" lon="4.54384">
        <ele>705.79998779297</ele>
        <time>2019-07-17T08:57:15.000Z</time>
      </trkpt>
      <trkpt lat="46.06541" lon="4.54375">
        <ele>707.40002441406</ele>
        <time>2019-07-17T08:57:18.000Z</time>
      </trkpt>
      <trkpt lat="46.06542" lon="4.54373">
        <ele>707.79998779297</ele>
        <time>2019-07-17T08:57:19.000Z</time>
      </trkpt>
      <trkpt lat="46.06542" lon="4.54367">
        <ele>708.79998779297</ele>
        <time>2019-07-17T08:57:21.000Z</time>
      </trkpt>
      <trkpt lat="46.06543" lon="4.5436">
        <ele>709.40002441406</ele>
        <time>2019-07-17T08:57:23.000Z</time>
      </trkpt>
      <trkpt lat="46.06544" lon="4.54354">
        <ele>709.79998779297</ele>
        <time>2019-07-17T08:57:25.000Z</time>
      </trkpt>
      <trkpt lat="46.06544" lon="4.54348">
        <ele>710.20001220703</ele>
        <time>2019-07-17T08:57:27.000Z</time>
      </trkpt>
      <trkpt lat="46.06545" lon="4.54341">
        <ele>711</ele>
        <time>2019-07-17T08:57:29.000Z</time>
      </trkpt>
      <trkpt lat="46.06545" lon="4.54333">
        <ele>711.59997558594</ele>
        <time>2019-07-17T08:57:31.000Z</time>
      </trkpt>
      <trkpt lat="46.06546" lon="4.54324">
        <ele>712.40002441406</ele>
        <time>2019-07-17T08:57:33.000Z</time>
      </trkpt>
      <trkpt lat="46.06546" lon="4.5432">
        <ele>712.79998779297</ele>
        <time>2019-07-17T08:57:34.000Z</time>
      </trkpt>
      <trkpt lat="46.06546" lon="4.5431">
        <ele>713.40002441406</ele>
        <time>2019-07-17T08:57:36.000Z</time>
      </trkpt>
      <trkpt lat="46.06545" lon="4.54305">
        <ele>713.40002441406</ele>
        <time>2019-07-17T08:57:37.000Z</time>
      </trkpt>
      <trkpt lat="46.06545" lon="4.543">
        <ele>713.79998779297</ele>
        <time>2019-07-17T08:57:38.000Z</time>
      </trkpt>
      <trkpt lat="46.06545" lon="4.54291">
        <ele>714.59997558594</ele>
        <time>2019-07-17T08:57:40.000Z</time>
      </trkpt>
      <trkpt lat="46.06545" lon="4.54283">
        <ele>715.40002441406</ele>
        <time>2019-07-17T08:57:42.000Z</time>
      </trkpt>
      <trkpt lat="46.06545" lon="4.54278">
        <ele>716</ele>
        <time>2019-07-17T08:57:43.000Z</time>
      </trkpt>
      <trkpt lat="46.06545" lon="4.54274">
        <ele>716.79998779297</ele>
        <time>2019-07-17T08:57:44.000Z</time>
      </trkpt>
      <trkpt lat="46.06545" lon="4.5427">
        <ele>717.59997558594</ele>
        <time>2019-07-17T08:57:45.000Z</time>
      </trkpt>
      <trkpt lat="46.06545" lon="4.54266">
        <ele>718</ele>
        <time>2019-07-17T08:57:46.000Z</time>
      </trkpt>
      <trkpt lat="46.06545" lon="4.54261">
        <ele>718.20001220703</ele>
        <time>2019-07-17T08:57:47.000Z</time>
      </trkpt>
      <trkpt lat="46.06545" lon="4.54257">
        <ele>718.59997558594</ele>
        <time>2019-07-17T08:57:48.000Z</time>
      </trkpt>
      <trkpt lat="46.06544" lon="4.54253">
        <ele>719</ele>
        <time>2019-07-17T08:57:49.000Z</time>
      </trkpt>
      <trkpt lat="46.06545" lon="4.5425">
        <ele>719.20001220703</ele>
        <time>2019-07-17T08:57:50.000Z</time>
      </trkpt>
      <trkpt lat="46.06544" lon="4.54246">
        <ele>719.40002441406</ele>
        <time>2019-07-17T08:57:51.000Z</time>
      </trkpt>
      <trkpt lat="46.06544" lon="4.54243">
        <ele>719.59997558594</ele>
        <time>2019-07-17T08:57:52.000Z</time>
      </trkpt>
      <trkpt lat="46.06542" lon="4.5424">
        <ele>719.40002441406</ele>
        <time>2019-07-17T08:57:53.000Z</time>
      </trkpt>
      <trkpt lat="46.06542" lon="4.54235">
        <ele>719.79998779297</ele>
        <time>2019-07-17T08:57:54.000Z</time>
      </trkpt>
      <trkpt lat="46.06543" lon="4.54231">
        <ele>720.40002441406</ele>
        <time>2019-07-17T08:57:55.000Z</time>
      </trkpt>
      <trkpt lat="46.06542" lon="4.54227">
        <ele>720.40002441406</ele>
        <time>2019-07-17T08:57:56.000Z</time>
      </trkpt>
      <trkpt lat="46.06541" lon="4.54223">
        <ele>720.59997558594</ele>
        <time>2019-07-17T08:57:57.000Z</time>
      </trkpt>
      <trkpt lat="46.0654" lon="4.54219">
        <ele>720.59997558594</ele>
        <time>2019-07-17T08:57:58.000Z</time>
      </trkpt>
      <trkpt lat="46.06539" lon="4.54215">
        <ele>720.79998779297</ele>
        <time>2019-07-17T08:57:59.000Z</time>
      </trkpt>
      <trkpt lat="46.06538" lon="4.54211">
        <ele>721</ele>
        <time>2019-07-17T08:58:00.000Z</time>
      </trkpt>
      <trkpt lat="46.06537" lon="4.54207">
        <ele>720.79998779297</ele>
        <time>2019-07-17T08:58:01.000Z</time>
      </trkpt>
      <trkpt lat="46.06535" lon="4.54203">
        <ele>720.59997558594</ele>
        <time>2019-07-17T08:58:02.000Z</time>
      </trkpt>
      <trkpt lat="46.06533" lon="4.54198">
        <ele>721</ele>
        <time>2019-07-17T08:58:03.000Z</time>
      </trkpt>
      <trkpt lat="46.06531" lon="4.54194">
        <ele>721.59997558594</ele>
        <time>2019-07-17T08:58:04.000Z</time>
      </trkpt>
      <trkpt lat="46.0653" lon="4.5419">
        <ele>722.40002441406</ele>
        <time>2019-07-17T08:58:05.000Z</time>
      </trkpt>
      <trkpt lat="46.06528" lon="4.54186">
        <ele>722.79998779297</ele>
        <time>2019-07-17T08:58:06.000Z</time>
      </trkpt>
      <trkpt lat="46.06527" lon="4.54182">
        <ele>723.79998779297</ele>
        <time>2019-07-17T08:58:07.000Z</time>
      </trkpt>
      <trkpt lat="46.06527" lon="4.54179">
        <ele>724.40002441406</ele>
        <time>2019-07-17T08:58:08.000Z</time>
      </trkpt>
      <trkpt lat="46.06527" lon="4.54176">
        <ele>725.59997558594</ele>
        <time>2019-07-17T08:58:09.000Z</time>
      </trkpt>
      <trkpt lat="46.06527" lon="4.54172">
        <ele>726.79998779297</ele>
        <time>2019-07-17T08:58:10.000Z</time>
      </trkpt>
      <trkpt lat="46.06526" lon="4.54168">
        <ele>727.79998779297</ele>
        <time>2019-07-17T08:58:11.000Z</time>
      </trkpt>
      <trkpt lat="46.06525" lon="4.54164">
        <ele>728.20001220703</ele>
        <time>2019-07-17T08:58:12.000Z</time>
      </trkpt>
      <trkpt lat="46.06523" lon="4.54159">
        <ele>728.59997558594</ele>
        <time>2019-07-17T08:58:13.000Z</time>
      </trkpt>
      <trkpt lat="46.06521" lon="4.54155">
        <ele>729</ele>
        <time>2019-07-17T08:58:14.000Z</time>
      </trkpt>
      <trkpt lat="46.0652" lon="4.54151">
        <ele>729.40002441406</ele>
        <time>2019-07-17T08:58:15.000Z</time>
      </trkpt>
      <trkpt lat="46.06517" lon="4.54147">
        <ele>729.59997558594</ele>
        <time>2019-07-17T08:58:16.000Z</time>
      </trkpt>
      <trkpt lat="46.06515" lon="4.54142">
        <ele>729.59997558594</ele>
        <time>2019-07-17T08:58:17.000Z</time>
      </trkpt>
      <trkpt lat="46.06512" lon="4.54139">
        <ele>729.79998779297</ele>
        <time>2019-07-17T08:58:18.000Z</time>
      </trkpt>
      <trkpt lat="46.06509" lon="4.54135">
        <ele>729.59997558594</ele>
        <time>2019-07-17T08:58:19.000Z</time>
      </trkpt>
      <trkpt lat="46.06505" lon="4.54133">
        <ele>729.40002441406</ele>
        <time>2019-07-17T08:58:20.000Z</time>
      </trkpt>
      <trkpt lat="46.06502" lon="4.54129">
        <ele>729.20001220703</ele>
        <time>2019-07-17T08:58:21.000Z</time>
      </trkpt>
      <trkpt lat="46.06499" lon="4.54128">
        <ele>729</ele>
        <time>2019-07-17T08:58:22.000Z</time>
      </trkpt>
      <trkpt lat="46.06495" lon="4.54125">
        <ele>728.59997558594</ele>
        <time>2019-07-17T08:58:23.000Z</time>
      </trkpt>
      <trkpt lat="46.06492" lon="4.54122">
        <ele>728.59997558594</ele>
        <time>2019-07-17T08:58:24.000Z</time>
      </trkpt>
      <trkpt lat="46.0649" lon="4.54119">
        <ele>728.40002441406</ele>
        <time>2019-07-17T08:58:25.000Z</time>
      </trkpt>
      <trkpt lat="46.06487" lon="4.54116">
        <ele>728.59997558594</ele>
        <time>2019-07-17T08:58:26.000Z</time>
      </trkpt>
      <trkpt lat="46.06484" lon="4.54113">
        <ele>729</ele>
        <time>2019-07-17T08:58:27.000Z</time>
      </trkpt>
      <trkpt lat="46.06481" lon="4.5411">
        <ele>729.40002441406</ele>
        <time>2019-07-17T08:58:28.000Z</time>
      </trkpt>
      <trkpt lat="46.06479" lon="4.54107">
        <ele>730.20001220703</ele>
        <time>2019-07-17T08:58:29.000Z</time>
      </trkpt>
      <trkpt lat="46.06476" lon="4.54104">
        <ele>730.79998779297</ele>
        <time>2019-07-17T08:58:30.000Z</time>
      </trkpt>
      <trkpt lat="46.06474" lon="4.541">
        <ele>732</ele>
        <time>2019-07-17T08:58:31.000Z</time>
      </trkpt>
      <trkpt lat="46.06472" lon="4.54098">
        <ele>732.79998779297</ele>
        <time>2019-07-17T08:58:32.000Z</time>
      </trkpt>
      <trkpt lat="46.0647" lon="4.54094">
        <ele>733.79998779297</ele>
        <time>2019-07-17T08:58:33.000Z</time>
      </trkpt>
      <trkpt lat="46.06468" lon="4.54092">
        <ele>734.40002441406</ele>
        <time>2019-07-17T08:58:34.000Z</time>
      </trkpt>
      <trkpt lat="46.06466" lon="4.54091">
        <ele>734.40002441406</ele>
        <time>2019-07-17T08:58:35.000Z</time>
      </trkpt>
      <trkpt lat="46.06464" lon="4.54089">
        <ele>735</ele>
        <time>2019-07-17T08:58:36.000Z</time>
      </trkpt>
      <trkpt lat="46.06449" lon="4.54077">
        <ele>737.79998779297</ele>
        <time>2019-07-17T08:58:41.000Z</time>
      </trkpt>
      <trkpt lat="46.06443" lon="4.54073">
        <ele>738.79998779297</ele>
        <time>2019-07-17T08:58:43.000Z</time>
      </trkpt>
      <trkpt lat="46.06429" lon="4.54073">
        <ele>737.40002441406</ele>
        <time>2019-07-17T08:58:47.000Z</time>
      </trkpt>
      <trkpt lat="46.06425" lon="4.54075">
        <ele>736.20001220703</ele>
        <time>2019-07-17T08:58:48.000Z</time>
      </trkpt>
      <trkpt lat="46.06418" lon="4.54077">
        <ele>734.40002441406</ele>
        <time>2019-07-17T08:58:50.000Z</time>
      </trkpt>
      <trkpt lat="46.06414" lon="4.54078">
        <ele>733.40002441406</ele>
        <time>2019-07-17T08:58:51.000Z</time>
      </trkpt>
      <trkpt lat="46.06411" lon="4.5408">
        <ele>732.20001220703</ele>
        <time>2019-07-17T08:58:52.000Z</time>
      </trkpt>
      <trkpt lat="46.06403" lon="4.54085">
        <ele>729.40002441406</ele>
        <time>2019-07-17T08:58:54.000Z</time>
      </trkpt>
      <trkpt lat="46.06399" lon="4.54086">
        <ele>728.20001220703</ele>
        <time>2019-07-17T08:58:55.000Z</time>
      </trkpt>
      <trkpt lat="46.06388" lon="4.54087">
        <ele>727.20001220703</ele>
        <time>2019-07-17T08:58:58.000Z</time>
      </trkpt>
      <trkpt lat="46.06372" lon="4.54083">
        <ele>730</ele>
        <time>2019-07-17T08:59:03.000Z</time>
      </trkpt>
      <trkpt lat="46.0637" lon="4.54082">
        <ele>730.40002441406</ele>
        <time>2019-07-17T08:59:04.000Z</time>
      </trkpt>
      <trkpt lat="46.06367" lon="4.54082">
        <ele>730.59997558594</ele>
        <time>2019-07-17T08:59:05.000Z</time>
      </trkpt>
      <trkpt lat="46.06361" lon="4.54083">
        <ele>730.40002441406</ele>
        <time>2019-07-17T08:59:07.000Z</time>
      </trkpt>
      <trkpt lat="46.06358" lon="4.54083">
        <ele>730.79998779297</ele>
        <time>2019-07-17T08:59:08.000Z</time>
      </trkpt>
      <trkpt lat="46.06355" lon="4.54084">
        <ele>730.59997558594</ele>
        <time>2019-07-17T08:59:09.000Z</time>
      </trkpt>
      <trkpt lat="46.06347" lon="4.54083">
        <ele>731.40002441406</ele>
        <time>2019-07-17T08:59:12.000Z</time>
      </trkpt>
      <trkpt lat="46.06338" lon="4.54083">
        <ele>732</ele>
        <time>2019-07-17T08:59:16.000Z</time>
      </trkpt>
      <trkpt lat="46.06335" lon="4.54082">
        <ele>732.40002441406</ele>
        <time>2019-07-17T08:59:17.000Z</time>
      </trkpt>
      <trkpt lat="46.06325" lon="4.54082">
        <ele>733</ele>
        <time>2019-07-17T08:59:21.000Z</time>
      </trkpt>
      <trkpt lat="46.06316" lon="4.54083">
        <ele>733.40002441406</ele>
        <time>2019-07-17T08:59:24.000Z</time>
      </trkpt>
      <trkpt lat="46.0631" lon="4.54081">
        <ele>734.40002441406</ele>
        <time>2019-07-17T08:59:26.000Z</time>
      </trkpt>
      <trkpt lat="46.06297" lon="4.54075">
        <ele>737.20001220703</ele>
        <time>2019-07-17T08:59:30.000Z</time>
      </trkpt>
      <trkpt lat="46.06294" lon="4.54074">
        <ele>737.79998779297</ele>
        <time>2019-07-17T08:59:31.000Z</time>
      </trkpt>
      <trkpt lat="46.06285" lon="4.54073">
        <ele>738.79998779297</ele>
        <time>2019-07-17T08:59:34.000Z</time>
      </trkpt>
      <trkpt lat="46.06274" lon="4.54075">
        <ele>738.40002441406</ele>
        <time>2019-07-17T08:59:37.000Z</time>
      </trkpt>
      <trkpt lat="46.06267" lon="4.54077">
        <ele>737.79998779297</ele>
        <time>2019-07-17T08:59:39.000Z</time>
      </trkpt>
      <trkpt lat="46.06261" lon="4.54079">
        <ele>737.40002441406</ele>
        <time>2019-07-17T08:59:41.000Z</time>
      </trkpt>
      <trkpt lat="46.06255" lon="4.54079">
        <ele>737.40002441406</ele>
        <time>2019-07-17T08:59:43.000Z</time>
      </trkpt>
      <trkpt lat="46.06247" lon="4.54081">
        <ele>737</ele>
        <time>2019-07-17T08:59:45.000Z</time>
      </trkpt>
      <trkpt lat="46.06239" lon="4.54082">
        <ele>736.40002441406</ele>
        <time>2019-07-17T08:59:47.000Z</time>
      </trkpt>
      <trkpt lat="46.06235" lon="4.54082">
        <ele>736.59997558594</ele>
        <time>2019-07-17T08:59:48.000Z</time>
      </trkpt>
      <trkpt lat="46.06231" lon="4.54083">
        <ele>736.59997558594</ele>
        <time>2019-07-17T08:59:49.000Z</time>
      </trkpt>
      <trkpt lat="46.06228" lon="4.54082">
        <ele>736.59997558594</ele>
        <time>2019-07-17T08:59:50.000Z</time>
      </trkpt>
      <trkpt lat="46.06221" lon="4.54083">
        <ele>736.20001220703</ele>
        <time>2019-07-17T08:59:52.000Z</time>
      </trkpt>
      <trkpt lat="46.06217" lon="4.54083">
        <ele>736.40002441406</ele>
        <time>2019-07-17T08:59:53.000Z</time>
      </trkpt>
      <trkpt lat="46.06214" lon="4.54082">
        <ele>736.79998779297</ele>
        <time>2019-07-17T08:59:54.000Z</time>
      </trkpt>
      <trkpt lat="46.06195" lon="4.54077">
        <ele>738.40002441406</ele>
        <time>2019-07-17T09:00:00.000Z</time>
      </trkpt>
      <trkpt lat="46.06177" lon="4.54075">
        <ele>739.59997558594</ele>
        <time>2019-07-17T09:00:07.000Z</time>
      </trkpt>
      <trkpt lat="46.06167" lon="4.54079">
        <ele>738.79998779297</ele>
        <time>2019-07-17T09:00:10.000Z</time>
      </trkpt>
      <trkpt lat="46.06161" lon="4.54082">
        <ele>738.40002441406</ele>
        <time>2019-07-17T09:00:12.000Z</time>
      </trkpt>
      <trkpt lat="46.06148" lon="4.54087">
        <ele>737.40002441406</ele>
        <time>2019-07-17T09:00:16.000Z</time>
      </trkpt>
      <trkpt lat="46.06145" lon="4.54089">
        <ele>736.79998779297</ele>
        <time>2019-07-17T09:00:17.000Z</time>
      </trkpt>
      <trkpt lat="46.06132" lon="4.54088">
        <ele>735.40002441406</ele>
        <time>2019-07-17T09:00:21.000Z</time>
      </trkpt>
      <trkpt lat="46.06118" lon="4.54081">
        <ele>735.20001220703</ele>
        <time>2019-07-17T09:00:25.000Z</time>
      </trkpt>
      <trkpt lat="46.06112" lon="4.54076">
        <ele>735.59997558594</ele>
        <time>2019-07-17T09:00:27.000Z</time>
      </trkpt>
      <trkpt lat="46.06098" lon="4.54057">
        <ele>739.40002441406</ele>
        <time>2019-07-17T09:00:33.000Z</time>
      </trkpt>
      <trkpt lat="46.06095" lon="4.54053">
        <ele>740.20001220703</ele>
        <time>2019-07-17T09:00:34.000Z</time>
      </trkpt>
      <trkpt lat="46.06078" lon="4.5403">
        <ele>744</ele>
        <time>2019-07-17T09:00:41.000Z</time>
      </trkpt>
      <trkpt lat="46.06065" lon="4.54013">
        <ele>743.20001220703</ele>
        <time>2019-07-17T09:00:46.000Z</time>
      </trkpt>
      <trkpt lat="46.06055" lon="4.54001">
        <ele>742.59997558594</ele>
        <time>2019-07-17T09:00:50.000Z</time>
      </trkpt>
      <trkpt lat="46.06031" lon="4.5397">
        <ele>742.40002441406</ele>
        <time>2019-07-17T09:01:00.000Z</time>
      </trkpt>
      <trkpt lat="46.06025" lon="4.53961">
        <ele>742.40002441406</ele>
        <time>2019-07-17T09:01:03.000Z</time>
      </trkpt>
      <trkpt lat="46.06016" lon="4.53947">
        <ele>742.40002441406</ele>
        <time>2019-07-17T09:01:07.000Z</time>
      </trkpt>
      <trkpt lat="46.06001" lon="4.53925">
        <ele>741.79998779297</ele>
        <time>2019-07-17T09:01:14.000Z</time>
      </trkpt>
      <trkpt lat="46.05987" lon="4.53903">
        <ele>741.20001220703</ele>
        <time>2019-07-17T09:01:20.000Z</time>
      </trkpt>
      <trkpt lat="46.05977" lon="4.53886">
        <ele>741</ele>
        <time>2019-07-17T09:01:25.000Z</time>
      </trkpt>
      <trkpt lat="46.05963" lon="4.53867">
        <ele>741</ele>
        <time>2019-07-17T09:01:31.000Z</time>
      </trkpt>
      <trkpt lat="46.05952" lon="4.53845">
        <ele>740.79998779297</ele>
        <time>2019-07-17T09:01:37.000Z</time>
      </trkpt>
      <trkpt lat="46.05938" lon="4.53814">
        <ele>740.20001220703</ele>
        <time>2019-07-17T09:01:45.000Z</time>
      </trkpt>
      <trkpt lat="46.05936" lon="4.53807">
        <ele>740</ele>
        <time>2019-07-17T09:01:47.000Z</time>
      </trkpt>
      <trkpt lat="46.05929" lon="4.53785">
        <ele>739.79998779297</ele>
        <time>2019-07-17T09:01:53.000Z</time>
      </trkpt>
    </trkseg>
  </trk>
</gpx>